<?xml version="1.0" encoding="UTF-8" standalone="no" ?>
<gpx xmlns="http://www.topografix.com/GPX/1/1" xmlns:xsi="http://www.w3.org/2001/XMLSchema-instance" xsi:schemaLocation="http://www.topografix.com/GPX/1/1 http://www.topografix.com/GPX/1/1/gpx.xsd" version="1.1" creator="VisuGPX - https://www.visugpx.com">
  <metadata>
    <name>020417 Ugny- Longuyon</name>
    <desc><![CDATA[Parcours vallonné au depart d ugny.
Pas de difficulté particuliere.
parcours en sous bois pour la grande majorité de la sortie.

A eviter en periode de chasse.
]]></desc>
  </metadata>
  <trk>
    <name><![CDATA[020417 ugny-longuyon]]></name>
    <trkseg>
      <trkpt lat="49.4663" lon="5.69685">
        <ele>295.74267578125</ele>
        <time>2017-04-02T07:11:38Z</time>
      </trkpt>
      <trkpt lat="49.46677" lon="5.69646">
        <ele>289.494140625</ele>
        <time>2017-04-02T07:11:50Z</time>
      </trkpt>
      <trkpt lat="49.46732" lon="5.69594">
        <ele>284.68762207031</ele>
        <time>2017-04-02T07:12:05Z</time>
      </trkpt>
      <trkpt lat="49.46769" lon="5.69562">
        <ele>281.32299804688</ele>
        <time>2017-04-02T07:12:15Z</time>
      </trkpt>
      <trkpt lat="49.46791" lon="5.69579">
        <ele>282.76501464844</ele>
        <time>2017-04-02T07:12:24Z</time>
      </trkpt>
      <trkpt lat="49.46798" lon="5.6958">
        <ele>282.76501464844</ele>
        <time>2017-04-02T07:12:26Z</time>
      </trkpt>
      <trkpt lat="49.46838" lon="5.69592">
        <ele>280.36169433594</ele>
        <time>2017-04-02T07:12:35Z</time>
      </trkpt>
      <trkpt lat="49.46863" lon="5.69599">
        <ele>277.47766113281</ele>
        <time>2017-04-02T07:12:43Z</time>
      </trkpt>
      <trkpt lat="49.46868" lon="5.696">
        <ele>276.9970703125</ele>
        <time>2017-04-02T07:12:45Z</time>
      </trkpt>
      <trkpt lat="49.4688" lon="5.69626">
        <ele>281.80358886719</ele>
        <time>2017-04-02T07:12:58Z</time>
      </trkpt>
      <trkpt lat="49.46885" lon="5.69639">
        <ele>281.80358886719</ele>
        <time>2017-04-02T07:13:12Z</time>
      </trkpt>
      <trkpt lat="49.46886" lon="5.69639">
        <ele>281.80358886719</ele>
        <time>2017-04-02T07:13:20Z</time>
      </trkpt>
      <trkpt lat="49.46897" lon="5.69662">
        <ele>281.80358886719</ele>
        <time>2017-04-02T07:13:33Z</time>
      </trkpt>
      <trkpt lat="49.46918" lon="5.69702">
        <ele>284.68762207031</ele>
        <time>2017-04-02T07:13:47Z</time>
      </trkpt>
      <trkpt lat="49.46929" lon="5.69701">
        <ele>284.20690917969</ele>
        <time>2017-04-02T07:13:52Z</time>
      </trkpt>
      <trkpt lat="49.46957" lon="5.69664">
        <ele>284.20690917969</ele>
        <time>2017-04-02T07:14:10Z</time>
      </trkpt>
      <trkpt lat="49.46973" lon="5.69643">
        <ele>287.57141113281</ele>
        <time>2017-04-02T07:14:22Z</time>
      </trkpt>
      <trkpt lat="49.46969" lon="5.69623">
        <ele>288.05224609375</ele>
        <time>2017-04-02T07:14:33Z</time>
      </trkpt>
      <trkpt lat="49.46959" lon="5.69588">
        <ele>287.57141113281</ele>
        <time>2017-04-02T07:14:46Z</time>
      </trkpt>
      <trkpt lat="49.46928" lon="5.69508">
        <ele>284.68762207031</ele>
        <time>2017-04-02T07:15:02Z</time>
      </trkpt>
      <trkpt lat="49.46884" lon="5.69427">
        <ele>283.72619628906</ele>
        <time>2017-04-02T07:15:21Z</time>
      </trkpt>
      <trkpt lat="49.46836" lon="5.69358">
        <ele>279.880859375</ele>
        <time>2017-04-02T07:15:34Z</time>
      </trkpt>
      <trkpt lat="49.46792" lon="5.6928">
        <ele>277.47766113281</ele>
        <time>2017-04-02T07:15:44Z</time>
      </trkpt>
      <trkpt lat="49.46776" lon="5.69241">
        <ele>283.24560546875</ele>
        <time>2017-04-02T07:15:52Z</time>
      </trkpt>
      <trkpt lat="49.46759" lon="5.69204">
        <ele>282.76501464844</ele>
        <time>2017-04-02T07:16:01Z</time>
      </trkpt>
      <trkpt lat="49.46747" lon="5.69175">
        <ele>283.24560546875</ele>
        <time>2017-04-02T07:16:13Z</time>
      </trkpt>
      <trkpt lat="49.46747" lon="5.69173">
        <ele>283.72619628906</ele>
        <time>2017-04-02T07:16:15Z</time>
      </trkpt>
      <trkpt lat="49.46746" lon="5.69156">
        <ele>285.16821289062</ele>
        <time>2017-04-02T07:16:25Z</time>
      </trkpt>
      <trkpt lat="49.46745" lon="5.69145">
        <ele>285.64880371094</ele>
        <time>2017-04-02T07:16:32Z</time>
      </trkpt>
      <trkpt lat="49.46744" lon="5.69138">
        <ele>285.16821289062</ele>
        <time>2017-04-02T07:16:35Z</time>
      </trkpt>
      <trkpt lat="49.46739" lon="5.69112">
        <ele>284.68762207031</ele>
        <time>2017-04-02T07:16:43Z</time>
      </trkpt>
      <trkpt lat="49.46738" lon="5.69077">
        <ele>279.880859375</ele>
        <time>2017-04-02T07:16:52Z</time>
      </trkpt>
      <trkpt lat="49.46741" lon="5.69039">
        <ele>278.43896484375</ele>
        <time>2017-04-02T07:17:01Z</time>
      </trkpt>
      <trkpt lat="49.4674" lon="5.69026">
        <ele>277.95825195312</ele>
        <time>2017-04-02T07:17:06Z</time>
      </trkpt>
      <trkpt lat="49.46739" lon="5.68993">
        <ele>276.51635742188</ele>
        <time>2017-04-02T07:17:16Z</time>
      </trkpt>
      <trkpt lat="49.46736" lon="5.68966">
        <ele>275.55505371094</ele>
        <time>2017-04-02T07:17:23Z</time>
      </trkpt>
      <trkpt lat="49.46734" lon="5.68941">
        <ele>273.63244628906</ele>
        <time>2017-04-02T07:17:29Z</time>
      </trkpt>
      <trkpt lat="49.4673" lon="5.68891">
        <ele>276.03564453125</ele>
        <time>2017-04-02T07:17:39Z</time>
      </trkpt>
      <trkpt lat="49.46727" lon="5.6884">
        <ele>282.76501464844</ele>
        <time>2017-04-02T07:17:50Z</time>
      </trkpt>
      <trkpt lat="49.46726" lon="5.68776">
        <ele>282.28430175781</ele>
        <time>2017-04-02T07:18:06Z</time>
      </trkpt>
      <trkpt lat="49.46739" lon="5.6871">
        <ele>282.76501464844</ele>
        <time>2017-04-02T07:18:24Z</time>
      </trkpt>
      <trkpt lat="49.46751" lon="5.68654">
        <ele>283.72619628906</ele>
        <time>2017-04-02T07:18:39Z</time>
      </trkpt>
      <trkpt lat="49.46757" lon="5.68622">
        <ele>283.72619628906</ele>
        <time>2017-04-02T07:18:47Z</time>
      </trkpt>
      <trkpt lat="49.46758" lon="5.68558">
        <ele>286.12951660156</ele>
        <time>2017-04-02T07:19:04Z</time>
      </trkpt>
      <trkpt lat="49.46752" lon="5.68532">
        <ele>287.0908203125</ele>
        <time>2017-04-02T07:19:11Z</time>
      </trkpt>
      <trkpt lat="49.46743" lon="5.68485">
        <ele>286.61022949219</ele>
        <time>2017-04-02T07:19:20Z</time>
      </trkpt>
      <trkpt lat="49.46725" lon="5.68445">
        <ele>285.16821289062</ele>
        <time>2017-04-02T07:19:26Z</time>
      </trkpt>
      <trkpt lat="49.46718" lon="5.68401">
        <ele>284.68762207031</ele>
        <time>2017-04-02T07:19:31Z</time>
      </trkpt>
      <trkpt lat="49.46713" lon="5.68362">
        <ele>277.95825195312</ele>
        <time>2017-04-02T07:19:37Z</time>
      </trkpt>
      <trkpt lat="49.46713" lon="5.68341">
        <ele>273.63244628906</ele>
        <time>2017-04-02T07:19:41Z</time>
      </trkpt>
      <trkpt lat="49.46717" lon="5.68307">
        <ele>271.22912597656</ele>
        <time>2017-04-02T07:19:44Z</time>
      </trkpt>
      <trkpt lat="49.4672" lon="5.68236">
        <ele>263.05786132812</ele>
        <time>2017-04-02T07:19:53Z</time>
      </trkpt>
      <trkpt lat="49.4672" lon="5.68196">
        <ele>260.65454101562</ele>
        <time>2017-04-02T07:19:57Z</time>
      </trkpt>
      <trkpt lat="49.46722" lon="5.681">
        <ele>254.40600585938</ele>
        <time>2017-04-02T07:20:09Z</time>
      </trkpt>
      <trkpt lat="49.46719" lon="5.68038">
        <ele>252.4833984375</ele>
        <time>2017-04-02T07:20:22Z</time>
      </trkpt>
      <trkpt lat="49.46721" lon="5.68024">
        <ele>254.40600585938</ele>
        <time>2017-04-02T07:20:38Z</time>
      </trkpt>
      <trkpt lat="49.46717" lon="5.67991">
        <ele>252.4833984375</ele>
        <time>2017-04-02T07:20:44Z</time>
      </trkpt>
      <trkpt lat="49.46732" lon="5.67912">
        <ele>257.2900390625</ele>
        <time>2017-04-02T07:20:55Z</time>
      </trkpt>
      <trkpt lat="49.46734" lon="5.679">
        <ele>258.25134277344</ele>
        <time>2017-04-02T07:20:57Z</time>
      </trkpt>
      <trkpt lat="49.46746" lon="5.67813">
        <ele>263.53857421875</ele>
        <time>2017-04-02T07:21:09Z</time>
      </trkpt>
      <trkpt lat="49.46753" lon="5.67754">
        <ele>269.30651855469</ele>
        <time>2017-04-02T07:21:20Z</time>
      </trkpt>
      <trkpt lat="49.46752" lon="5.6773">
        <ele>274.59375</ele>
        <time>2017-04-02T07:21:32Z</time>
      </trkpt>
      <trkpt lat="49.46755" lon="5.67701">
        <ele>278.91967773438</ele>
        <time>2017-04-02T07:21:39Z</time>
      </trkpt>
      <trkpt lat="49.46757" lon="5.67676">
        <ele>282.76501464844</ele>
        <time>2017-04-02T07:21:50Z</time>
      </trkpt>
      <trkpt lat="49.46759" lon="5.67666">
        <ele>282.28430175781</ele>
        <time>2017-04-02T07:21:54Z</time>
      </trkpt>
      <trkpt lat="49.46784" lon="5.67611">
        <ele>281.80358886719</ele>
        <time>2017-04-02T07:22:05Z</time>
      </trkpt>
      <trkpt lat="49.46805" lon="5.67553">
        <ele>283.72619628906</ele>
        <time>2017-04-02T07:22:16Z</time>
      </trkpt>
      <trkpt lat="49.46817" lon="5.67499">
        <ele>284.68762207031</ele>
        <time>2017-04-02T07:22:27Z</time>
      </trkpt>
      <trkpt lat="49.46823" lon="5.67456">
        <ele>284.68762207031</ele>
        <time>2017-04-02T07:22:38Z</time>
      </trkpt>
      <trkpt lat="49.46824" lon="5.67452">
        <ele>283.72619628906</ele>
        <time>2017-04-02T07:22:40Z</time>
      </trkpt>
      <trkpt lat="49.46832" lon="5.67412">
        <ele>278.91967773438</ele>
        <time>2017-04-02T07:22:51Z</time>
      </trkpt>
      <trkpt lat="49.46835" lon="5.67383">
        <ele>279.40026855469</ele>
        <time>2017-04-02T07:23:01Z</time>
      </trkpt>
      <trkpt lat="49.46836" lon="5.6737">
        <ele>278.91967773438</ele>
        <time>2017-04-02T07:23:08Z</time>
      </trkpt>
      <trkpt lat="49.46839" lon="5.6735">
        <ele>273.15185546875</ele>
        <time>2017-04-02T07:23:23Z</time>
      </trkpt>
      <trkpt lat="49.4684" lon="5.67351">
        <ele>270.26770019531</ele>
        <time>2017-04-02T07:24:37Z</time>
      </trkpt>
      <trkpt lat="49.46848" lon="5.67323">
        <ele>264.01928710938</ele>
        <time>2017-04-02T07:25:24Z</time>
      </trkpt>
      <trkpt lat="49.46861" lon="5.67271">
        <ele>259.21264648438</ele>
        <time>2017-04-02T07:25:42Z</time>
      </trkpt>
      <trkpt lat="49.46868" lon="5.67222">
        <ele>254.40600585938</ele>
        <time>2017-04-02T07:25:59Z</time>
      </trkpt>
      <trkpt lat="49.46881" lon="5.67183">
        <ele>247.19604492188</ele>
        <time>2017-04-02T07:26:12Z</time>
      </trkpt>
      <trkpt lat="49.46892" lon="5.67157">
        <ele>241.42822265625</ele>
        <time>2017-04-02T07:26:21Z</time>
      </trkpt>
      <trkpt lat="49.46897" lon="5.67149">
        <ele>239.02490234375</ele>
        <time>2017-04-02T07:26:23Z</time>
      </trkpt>
      <trkpt lat="49.46909" lon="5.6713">
        <ele>233.25708007812</ele>
        <time>2017-04-02T07:26:32Z</time>
      </trkpt>
      <trkpt lat="49.46911" lon="5.67122">
        <ele>234.21838378906</ele>
        <time>2017-04-02T07:26:35Z</time>
      </trkpt>
      <trkpt lat="49.46917" lon="5.67097">
        <ele>235.1796875</ele>
        <time>2017-04-02T07:26:48Z</time>
      </trkpt>
      <trkpt lat="49.46923" lon="5.67055">
        <ele>230.85375976562</ele>
        <time>2017-04-02T07:27:01Z</time>
      </trkpt>
      <trkpt lat="49.46923" lon="5.67053">
        <ele>230.85375976562</ele>
        <time>2017-04-02T07:27:03Z</time>
      </trkpt>
      <trkpt lat="49.46922" lon="5.67046">
        <ele>233.25708007812</ele>
        <time>2017-04-02T07:27:10Z</time>
      </trkpt>
      <trkpt lat="49.46916" lon="5.67044">
        <ele>233.73767089844</ele>
        <time>2017-04-02T07:27:14Z</time>
      </trkpt>
      <trkpt lat="49.4691" lon="5.67045">
        <ele>235.66027832031</ele>
        <time>2017-04-02T07:27:18Z</time>
      </trkpt>
      <trkpt lat="49.46895" lon="5.67065">
        <ele>236.62170410156</ele>
        <time>2017-04-02T07:27:31Z</time>
      </trkpt>
      <trkpt lat="49.46874" lon="5.67087">
        <ele>240.46704101562</ele>
        <time>2017-04-02T07:27:48Z</time>
      </trkpt>
      <trkpt lat="49.46852" lon="5.67104">
        <ele>243.83154296875</ele>
        <time>2017-04-02T07:28:05Z</time>
      </trkpt>
      <trkpt lat="49.46843" lon="5.67112">
        <ele>249.59948730469</ele>
        <time>2017-04-02T07:28:15Z</time>
      </trkpt>
      <trkpt lat="49.46838" lon="5.67118">
        <ele>250.08020019531</ele>
        <time>2017-04-02T07:28:17Z</time>
      </trkpt>
      <trkpt lat="49.46833" lon="5.67118">
        <ele>250.08020019531</ele>
        <time>2017-04-02T07:28:20Z</time>
      </trkpt>
      <trkpt lat="49.46819" lon="5.67129">
        <ele>251.52209472656</ele>
        <time>2017-04-02T07:28:27Z</time>
      </trkpt>
      <trkpt lat="49.46813" lon="5.67136">
        <ele>253.44470214844</ele>
        <time>2017-04-02T07:28:32Z</time>
      </trkpt>
      <trkpt lat="49.4681" lon="5.67147">
        <ele>255.84802246094</ele>
        <time>2017-04-02T07:28:39Z</time>
      </trkpt>
      <trkpt lat="49.46808" lon="5.67138">
        <ele>256.32873535156</ele>
        <time>2017-04-02T07:28:46Z</time>
      </trkpt>
      <trkpt lat="49.46822" lon="5.67099">
        <ele>254.40600585938</ele>
        <time>2017-04-02T07:29:08Z</time>
      </trkpt>
      <trkpt lat="49.4683" lon="5.67074">
        <ele>255.36730957031</ele>
        <time>2017-04-02T07:29:22Z</time>
      </trkpt>
      <trkpt lat="49.46838" lon="5.67046">
        <ele>261.61596679688</ele>
        <time>2017-04-02T07:29:37Z</time>
      </trkpt>
      <trkpt lat="49.4684" lon="5.67038">
        <ele>261.61596679688</ele>
        <time>2017-04-02T07:29:40Z</time>
      </trkpt>
      <trkpt lat="49.46843" lon="5.67018">
        <ele>261.13525390625</ele>
        <time>2017-04-02T07:29:50Z</time>
      </trkpt>
      <trkpt lat="49.46843" lon="5.67005">
        <ele>264.01928710938</ele>
        <time>2017-04-02T07:29:55Z</time>
      </trkpt>
      <trkpt lat="49.46844" lon="5.66996">
        <ele>264.98059082031</ele>
        <time>2017-04-02T07:29:59Z</time>
      </trkpt>
      <trkpt lat="49.46844" lon="5.66985">
        <ele>266.42248535156</ele>
        <time>2017-04-02T07:30:04Z</time>
      </trkpt>
      <trkpt lat="49.46844" lon="5.66977">
        <ele>266.90319824219</ele>
        <time>2017-04-02T07:30:08Z</time>
      </trkpt>
      <trkpt lat="49.46845" lon="5.6697">
        <ele>266.90319824219</ele>
        <time>2017-04-02T07:30:11Z</time>
      </trkpt>
      <trkpt lat="49.46842" lon="5.66964">
        <ele>265.94189453125</ele>
        <time>2017-04-02T07:30:16Z</time>
      </trkpt>
      <trkpt lat="49.46843" lon="5.66956">
        <ele>265.94189453125</ele>
        <time>2017-04-02T07:30:20Z</time>
      </trkpt>
      <trkpt lat="49.46843" lon="5.66944">
        <ele>265.94189453125</ele>
        <time>2017-04-02T07:30:26Z</time>
      </trkpt>
      <trkpt lat="49.46841" lon="5.66939">
        <ele>265.94189453125</ele>
        <time>2017-04-02T07:30:29Z</time>
      </trkpt>
      <trkpt lat="49.46834" lon="5.6691">
        <ele>261.61596679688</ele>
        <time>2017-04-02T07:30:44Z</time>
      </trkpt>
      <trkpt lat="49.46834" lon="5.66905">
        <ele>261.61596679688</ele>
        <time>2017-04-02T07:30:47Z</time>
      </trkpt>
      <trkpt lat="49.46834" lon="5.66894">
        <ele>261.13525390625</ele>
        <time>2017-04-02T07:30:52Z</time>
      </trkpt>
      <trkpt lat="49.46834" lon="5.66883">
        <ele>261.13525390625</ele>
        <time>2017-04-02T07:30:58Z</time>
      </trkpt>
      <trkpt lat="49.46833" lon="5.66873">
        <ele>261.13525390625</ele>
        <time>2017-04-02T07:31:03Z</time>
      </trkpt>
      <trkpt lat="49.46833" lon="5.6684">
        <ele>262.09655761719</ele>
        <time>2017-04-02T07:31:20Z</time>
      </trkpt>
      <trkpt lat="49.46834" lon="5.66834">
        <ele>262.09655761719</ele>
        <time>2017-04-02T07:31:23Z</time>
      </trkpt>
      <trkpt lat="49.46833" lon="5.66825">
        <ele>262.5771484375</ele>
        <time>2017-04-02T07:31:28Z</time>
      </trkpt>
      <trkpt lat="49.46832" lon="5.66817">
        <ele>263.05786132812</ele>
        <time>2017-04-02T07:31:32Z</time>
      </trkpt>
      <trkpt lat="49.46835" lon="5.66796">
        <ele>264.98059082031</ele>
        <time>2017-04-02T07:31:42Z</time>
      </trkpt>
      <trkpt lat="49.46842" lon="5.66758">
        <ele>269.30651855469</ele>
        <time>2017-04-02T07:32:00Z</time>
      </trkpt>
      <trkpt lat="49.46843" lon="5.6674">
        <ele>271.22912597656</ele>
        <time>2017-04-02T07:32:08Z</time>
      </trkpt>
      <trkpt lat="49.46846" lon="5.66714">
        <ele>271.22912597656</ele>
        <time>2017-04-02T07:32:22Z</time>
      </trkpt>
      <trkpt lat="49.46849" lon="5.66686">
        <ele>271.22912597656</ele>
        <time>2017-04-02T07:32:37Z</time>
      </trkpt>
      <trkpt lat="49.46855" lon="5.66662">
        <ele>273.63244628906</ele>
        <time>2017-04-02T07:32:48Z</time>
      </trkpt>
      <trkpt lat="49.46857" lon="5.66646">
        <ele>274.11303710938</ele>
        <time>2017-04-02T07:32:58Z</time>
      </trkpt>
      <trkpt lat="49.46861" lon="5.66628">
        <ele>274.59375</ele>
        <time>2017-04-02T07:33:06Z</time>
      </trkpt>
      <trkpt lat="49.46868" lon="5.6661">
        <ele>275.55505371094</ele>
        <time>2017-04-02T07:33:14Z</time>
      </trkpt>
      <trkpt lat="49.46869" lon="5.66602">
        <ele>277.47766113281</ele>
        <time>2017-04-02T07:33:18Z</time>
      </trkpt>
      <trkpt lat="49.46881" lon="5.66563">
        <ele>283.72619628906</ele>
        <time>2017-04-02T07:33:35Z</time>
      </trkpt>
      <trkpt lat="49.4688" lon="5.66556">
        <ele>285.16821289062</ele>
        <time>2017-04-02T07:33:38Z</time>
      </trkpt>
      <trkpt lat="49.4688" lon="5.66553">
        <ele>285.64880371094</ele>
        <time>2017-04-02T07:33:40Z</time>
      </trkpt>
      <trkpt lat="49.46876" lon="5.66543">
        <ele>287.0908203125</ele>
        <time>2017-04-02T07:33:48Z</time>
      </trkpt>
      <trkpt lat="49.46872" lon="5.66541">
        <ele>287.0908203125</ele>
        <time>2017-04-02T07:33:51Z</time>
      </trkpt>
      <trkpt lat="49.46868" lon="5.66532">
        <ele>288.53295898438</ele>
        <time>2017-04-02T07:33:57Z</time>
      </trkpt>
      <trkpt lat="49.46863" lon="5.6653">
        <ele>288.53295898438</ele>
        <time>2017-04-02T07:34:01Z</time>
      </trkpt>
      <trkpt lat="49.46843" lon="5.66522">
        <ele>290.45556640625</ele>
        <time>2017-04-02T07:34:17Z</time>
      </trkpt>
      <trkpt lat="49.46834" lon="5.66522">
        <ele>291.41674804688</ele>
        <time>2017-04-02T07:34:23Z</time>
      </trkpt>
      <trkpt lat="49.46808" lon="5.6652">
        <ele>293.82006835938</ele>
        <time>2017-04-02T07:34:42Z</time>
      </trkpt>
      <trkpt lat="49.46798" lon="5.6652">
        <ele>293.82006835938</ele>
        <time>2017-04-02T07:34:58Z</time>
      </trkpt>
      <trkpt lat="49.46798" lon="5.66519">
        <ele>293.82006835938</ele>
        <time>2017-04-02T07:35:51Z</time>
      </trkpt>
      <trkpt lat="49.46798" lon="5.66519">
        <ele>294.78137207031</ele>
        <time>2017-04-02T07:36:40Z</time>
      </trkpt>
      <trkpt lat="49.46775" lon="5.66515">
        <ele>298.14611816406</ele>
        <time>2017-04-02T07:38:24Z</time>
      </trkpt>
      <trkpt lat="49.46745" lon="5.66486">
        <ele>297.66540527344</ele>
        <time>2017-04-02T07:38:46Z</time>
      </trkpt>
      <trkpt lat="49.46728" lon="5.66419">
        <ele>296.7041015625</ele>
        <time>2017-04-02T07:39:07Z</time>
      </trkpt>
      <trkpt lat="49.46719" lon="5.66355">
        <ele>294.78137207031</ele>
        <time>2017-04-02T07:39:21Z</time>
      </trkpt>
      <trkpt lat="49.46708" lon="5.66342">
        <ele>294.78137207031</ele>
        <time>2017-04-02T07:39:26Z</time>
      </trkpt>
      <trkpt lat="49.46698" lon="5.66287">
        <ele>298.14611816406</ele>
        <time>2017-04-02T07:39:43Z</time>
      </trkpt>
      <trkpt lat="49.46713" lon="5.66232">
        <ele>298.62670898438</ele>
        <time>2017-04-02T07:40:04Z</time>
      </trkpt>
      <trkpt lat="49.46745" lon="5.66192">
        <ele>299.58801269531</ele>
        <time>2017-04-02T07:40:25Z</time>
      </trkpt>
      <trkpt lat="49.46785" lon="5.6616">
        <ele>300.54931640625</ele>
        <time>2017-04-02T07:40:48Z</time>
      </trkpt>
      <trkpt lat="49.46829" lon="5.66141">
        <ele>299.58801269531</ele>
        <time>2017-04-02T07:41:07Z</time>
      </trkpt>
      <trkpt lat="49.46871" lon="5.66116">
        <ele>299.58801269531</ele>
        <time>2017-04-02T07:41:22Z</time>
      </trkpt>
      <trkpt lat="49.46923" lon="5.66084">
        <ele>299.58801269531</ele>
        <time>2017-04-02T07:41:44Z</time>
      </trkpt>
      <trkpt lat="49.46977" lon="5.66066">
        <ele>296.22351074219</ele>
        <time>2017-04-02T07:42:06Z</time>
      </trkpt>
      <trkpt lat="49.47014" lon="5.66051">
        <ele>297.66540527344</ele>
        <time>2017-04-02T07:42:18Z</time>
      </trkpt>
      <trkpt lat="49.4705" lon="5.66018">
        <ele>301.99133300781</ele>
        <time>2017-04-02T07:42:30Z</time>
      </trkpt>
      <trkpt lat="49.47059" lon="5.66007">
        <ele>302.47192382812</ele>
        <time>2017-04-02T07:42:33Z</time>
      </trkpt>
      <trkpt lat="49.47106" lon="5.6598">
        <ele>300.54931640625</ele>
        <time>2017-04-02T07:42:44Z</time>
      </trkpt>
      <trkpt lat="49.47142" lon="5.65954">
        <ele>302.47192382812</ele>
        <time>2017-04-02T07:42:51Z</time>
      </trkpt>
      <trkpt lat="49.47168" lon="5.6592">
        <ele>304.39465332031</ele>
        <time>2017-04-02T07:42:56Z</time>
      </trkpt>
      <trkpt lat="49.47184" lon="5.65881">
        <ele>304.39465332031</ele>
        <time>2017-04-02T07:43:03Z</time>
      </trkpt>
      <trkpt lat="49.47169" lon="5.65848">
        <ele>303.43322753906</ele>
        <time>2017-04-02T07:43:16Z</time>
      </trkpt>
      <trkpt lat="49.47159" lon="5.65829">
        <ele>303.91394042969</ele>
        <time>2017-04-02T07:43:23Z</time>
      </trkpt>
      <trkpt lat="49.47156" lon="5.65823">
        <ele>301.51062011719</ele>
        <time>2017-04-02T07:43:25Z</time>
      </trkpt>
      <trkpt lat="49.47153" lon="5.65809">
        <ele>299.10729980469</ele>
        <time>2017-04-02T07:43:30Z</time>
      </trkpt>
      <trkpt lat="49.47148" lon="5.65794">
        <ele>299.10729980469</ele>
        <time>2017-04-02T07:43:34Z</time>
      </trkpt>
      <trkpt lat="49.4714" lon="5.65743">
        <ele>294.30078125</ele>
        <time>2017-04-02T07:43:45Z</time>
      </trkpt>
      <trkpt lat="49.47136" lon="5.65711">
        <ele>293.33935546875</ele>
        <time>2017-04-02T07:43:52Z</time>
      </trkpt>
      <trkpt lat="49.47136" lon="5.65702">
        <ele>294.30078125</ele>
        <time>2017-04-02T07:43:54Z</time>
      </trkpt>
      <trkpt lat="49.47128" lon="5.6565">
        <ele>298.62670898438</ele>
        <time>2017-04-02T07:44:03Z</time>
      </trkpt>
      <trkpt lat="49.4711" lon="5.65569">
        <ele>301.02990722656</ele>
        <time>2017-04-02T07:44:13Z</time>
      </trkpt>
      <trkpt lat="49.47094" lon="5.65527">
        <ele>297.66540527344</ele>
        <time>2017-04-02T07:44:20Z</time>
      </trkpt>
      <trkpt lat="49.47071" lon="5.65471">
        <ele>288.53295898438</ele>
        <time>2017-04-02T07:44:31Z</time>
      </trkpt>
      <trkpt lat="49.47069" lon="5.65462">
        <ele>288.53295898438</ele>
        <time>2017-04-02T07:44:33Z</time>
      </trkpt>
      <trkpt lat="49.47057" lon="5.65394">
        <ele>288.53295898438</ele>
        <time>2017-04-02T07:44:48Z</time>
      </trkpt>
      <trkpt lat="49.47059" lon="5.6538">
        <ele>288.05224609375</ele>
        <time>2017-04-02T07:44:50Z</time>
      </trkpt>
      <trkpt lat="49.47039" lon="5.65337">
        <ele>284.20690917969</ele>
        <time>2017-04-02T07:45:01Z</time>
      </trkpt>
      <trkpt lat="49.47015" lon="5.65308">
        <ele>288.53295898438</ele>
        <time>2017-04-02T07:45:17Z</time>
      </trkpt>
      <trkpt lat="49.47006" lon="5.6529">
        <ele>287.57141113281</ele>
        <time>2017-04-02T07:45:25Z</time>
      </trkpt>
      <trkpt lat="49.47001" lon="5.65279">
        <ele>287.0908203125</ele>
        <time>2017-04-02T07:45:30Z</time>
      </trkpt>
      <trkpt lat="49.46993" lon="5.65265">
        <ele>291.8974609375</ele>
        <time>2017-04-02T07:45:41Z</time>
      </trkpt>
      <trkpt lat="49.46988" lon="5.65253">
        <ele>294.30078125</ele>
        <time>2017-04-02T07:45:47Z</time>
      </trkpt>
      <trkpt lat="49.46983" lon="5.65245">
        <ele>294.78137207031</ele>
        <time>2017-04-02T07:45:52Z</time>
      </trkpt>
      <trkpt lat="49.46979" lon="5.65237">
        <ele>297.66540527344</ele>
        <time>2017-04-02T07:45:58Z</time>
      </trkpt>
      <trkpt lat="49.46961" lon="5.65229">
        <ele>301.51062011719</ele>
        <time>2017-04-02T07:46:19Z</time>
      </trkpt>
      <trkpt lat="49.46953" lon="5.6523">
        <ele>302.95251464844</ele>
        <time>2017-04-02T07:46:33Z</time>
      </trkpt>
      <trkpt lat="49.46946" lon="5.6523">
        <ele>303.91394042969</ele>
        <time>2017-04-02T07:46:46Z</time>
      </trkpt>
      <trkpt lat="49.46939" lon="5.65229">
        <ele>302.47192382812</ele>
        <time>2017-04-02T07:47:00Z</time>
      </trkpt>
      <trkpt lat="49.46922" lon="5.65229">
        <ele>301.99133300781</ele>
        <time>2017-04-02T07:47:15Z</time>
      </trkpt>
      <trkpt lat="49.46901" lon="5.65234">
        <ele>305.83666992188</ele>
        <time>2017-04-02T07:47:32Z</time>
      </trkpt>
      <trkpt lat="49.46898" lon="5.65231">
        <ele>307.75927734375</ele>
        <time>2017-04-02T07:47:57Z</time>
      </trkpt>
      <trkpt lat="49.4688" lon="5.65232">
        <ele>308.72045898438</ele>
        <time>2017-04-02T07:49:30Z</time>
      </trkpt>
      <trkpt lat="49.46847" lon="5.65224">
        <ele>307.27856445312</ele>
        <time>2017-04-02T07:49:43Z</time>
      </trkpt>
      <trkpt lat="49.4682" lon="5.65213">
        <ele>301.99133300781</ele>
        <time>2017-04-02T07:49:52Z</time>
      </trkpt>
      <trkpt lat="49.46795" lon="5.65208">
        <ele>300.06872558594</ele>
        <time>2017-04-02T07:50:00Z</time>
      </trkpt>
      <trkpt lat="49.46773" lon="5.652">
        <ele>297.18469238281</ele>
        <time>2017-04-02T07:50:11Z</time>
      </trkpt>
      <trkpt lat="49.46748" lon="5.65197">
        <ele>297.18469238281</ele>
        <time>2017-04-02T07:50:21Z</time>
      </trkpt>
      <trkpt lat="49.4672" lon="5.6519">
        <ele>297.66540527344</ele>
        <time>2017-04-02T07:50:33Z</time>
      </trkpt>
      <trkpt lat="49.46696" lon="5.65178">
        <ele>301.02990722656</ele>
        <time>2017-04-02T07:50:44Z</time>
      </trkpt>
      <trkpt lat="49.46672" lon="5.65158">
        <ele>302.95251464844</ele>
        <time>2017-04-02T07:50:56Z</time>
      </trkpt>
      <trkpt lat="49.46651" lon="5.65141">
        <ele>301.99133300781</ele>
        <time>2017-04-02T07:51:04Z</time>
      </trkpt>
      <trkpt lat="49.46627" lon="5.65123">
        <ele>303.91394042969</ele>
        <time>2017-04-02T07:51:16Z</time>
      </trkpt>
      <trkpt lat="49.4662" lon="5.65116">
        <ele>303.91394042969</ele>
        <time>2017-04-02T07:51:20Z</time>
      </trkpt>
      <trkpt lat="49.46601" lon="5.65085">
        <ele>304.87524414062</ele>
        <time>2017-04-02T07:51:29Z</time>
      </trkpt>
      <trkpt lat="49.46589" lon="5.65061">
        <ele>306.7978515625</ele>
        <time>2017-04-02T07:51:35Z</time>
      </trkpt>
      <trkpt lat="49.46582" lon="5.65038">
        <ele>308.72045898438</ele>
        <time>2017-04-02T07:51:42Z</time>
      </trkpt>
      <trkpt lat="49.46558" lon="5.64997">
        <ele>307.27856445312</ele>
        <time>2017-04-02T07:51:55Z</time>
      </trkpt>
      <trkpt lat="49.46546" lon="5.64974">
        <ele>309.68188476562</ele>
        <time>2017-04-02T07:52:03Z</time>
      </trkpt>
      <trkpt lat="49.46528" lon="5.6494">
        <ele>316.41101074219</ele>
        <time>2017-04-02T07:52:15Z</time>
      </trkpt>
      <trkpt lat="49.46512" lon="5.64909">
        <ele>316.41101074219</ele>
        <time>2017-04-02T07:52:27Z</time>
      </trkpt>
      <trkpt lat="49.46503" lon="5.64889">
        <ele>316.89172363281</ele>
        <time>2017-04-02T07:52:36Z</time>
      </trkpt>
      <trkpt lat="49.4648" lon="5.64889">
        <ele>317.37243652344</ele>
        <time>2017-04-02T07:52:48Z</time>
      </trkpt>
      <trkpt lat="49.46476" lon="5.64892">
        <ele>319.29504394531</ele>
        <time>2017-04-02T07:52:52Z</time>
      </trkpt>
      <trkpt lat="49.46491" lon="5.64884">
        <ele>317.37243652344</ele>
        <time>2017-04-02T07:53:00Z</time>
      </trkpt>
      <trkpt lat="49.46492" lon="5.6487">
        <ele>317.37243652344</ele>
        <time>2017-04-02T07:53:05Z</time>
      </trkpt>
      <trkpt lat="49.46488" lon="5.64805">
        <ele>309.68188476562</ele>
        <time>2017-04-02T07:53:22Z</time>
      </trkpt>
      <trkpt lat="49.46478" lon="5.64788">
        <ele>310.16247558594</ele>
        <time>2017-04-02T07:53:29Z</time>
      </trkpt>
      <trkpt lat="49.46476" lon="5.64782">
        <ele>309.201171875</ele>
        <time>2017-04-02T07:53:32Z</time>
      </trkpt>
      <trkpt lat="49.46474" lon="5.64777">
        <ele>308.23986816406</ele>
        <time>2017-04-02T07:53:36Z</time>
      </trkpt>
      <trkpt lat="49.4648" lon="5.64768">
        <ele>308.23986816406</ele>
        <time>2017-04-02T07:53:40Z</time>
      </trkpt>
      <trkpt lat="49.4648" lon="5.64748">
        <ele>308.72045898438</ele>
        <time>2017-04-02T07:53:45Z</time>
      </trkpt>
      <trkpt lat="49.46476" lon="5.6473">
        <ele>308.23986816406</ele>
        <time>2017-04-02T07:53:55Z</time>
      </trkpt>
      <trkpt lat="49.46474" lon="5.64727">
        <ele>309.201171875</ele>
        <time>2017-04-02T07:53:59Z</time>
      </trkpt>
      <trkpt lat="49.46472" lon="5.64705">
        <ele>307.27856445312</ele>
        <time>2017-04-02T07:54:09Z</time>
      </trkpt>
      <trkpt lat="49.46466" lon="5.64677">
        <ele>307.75927734375</ele>
        <time>2017-04-02T07:54:21Z</time>
      </trkpt>
      <trkpt lat="49.46463" lon="5.64672">
        <ele>306.7978515625</ele>
        <time>2017-04-02T07:54:23Z</time>
      </trkpt>
      <trkpt lat="49.46464" lon="5.64663">
        <ele>308.23986816406</ele>
        <time>2017-04-02T07:54:27Z</time>
      </trkpt>
      <trkpt lat="49.46465" lon="5.64646">
        <ele>309.68188476562</ele>
        <time>2017-04-02T07:54:33Z</time>
      </trkpt>
      <trkpt lat="49.46463" lon="5.64629">
        <ele>307.75927734375</ele>
        <time>2017-04-02T07:54:40Z</time>
      </trkpt>
      <trkpt lat="49.46464" lon="5.64604">
        <ele>311.12377929688</ele>
        <time>2017-04-02T07:54:54Z</time>
      </trkpt>
      <trkpt lat="49.46462" lon="5.64597">
        <ele>311.6044921875</ele>
        <time>2017-04-02T07:54:56Z</time>
      </trkpt>
      <trkpt lat="49.46459" lon="5.64586">
        <ele>311.6044921875</ele>
        <time>2017-04-02T07:55:00Z</time>
      </trkpt>
      <trkpt lat="49.46459" lon="5.6456">
        <ele>310.16247558594</ele>
        <time>2017-04-02T07:55:12Z</time>
      </trkpt>
      <trkpt lat="49.4646" lon="5.64549">
        <ele>310.16247558594</ele>
        <time>2017-04-02T07:55:18Z</time>
      </trkpt>
      <trkpt lat="49.46465" lon="5.64508">
        <ele>309.201171875</ele>
        <time>2017-04-02T07:55:30Z</time>
      </trkpt>
      <trkpt lat="49.46464" lon="5.64497">
        <ele>308.72045898438</ele>
        <time>2017-04-02T07:55:33Z</time>
      </trkpt>
      <trkpt lat="49.46479" lon="5.64446">
        <ele>301.02990722656</ele>
        <time>2017-04-02T07:55:45Z</time>
      </trkpt>
      <trkpt lat="49.46477" lon="5.64425">
        <ele>302.95251464844</ele>
        <time>2017-04-02T07:55:53Z</time>
      </trkpt>
      <trkpt lat="49.46479" lon="5.64421">
        <ele>303.43322753906</ele>
        <time>2017-04-02T07:55:55Z</time>
      </trkpt>
      <trkpt lat="49.46478" lon="5.64413">
        <ele>302.47192382812</ele>
        <time>2017-04-02T07:55:58Z</time>
      </trkpt>
      <trkpt lat="49.46478" lon="5.64392">
        <ele>306.31726074219</ele>
        <time>2017-04-02T07:56:12Z</time>
      </trkpt>
      <trkpt lat="49.4648" lon="5.64384">
        <ele>305.35595703125</ele>
        <time>2017-04-02T07:56:27Z</time>
      </trkpt>
      <trkpt lat="49.46488" lon="5.64328">
        <ele>304.39465332031</ele>
        <time>2017-04-02T07:56:48Z</time>
      </trkpt>
      <trkpt lat="49.46493" lon="5.64313">
        <ele>305.35595703125</ele>
        <time>2017-04-02T07:56:54Z</time>
      </trkpt>
      <trkpt lat="49.46487" lon="5.64297">
        <ele>305.35595703125</ele>
        <time>2017-04-02T07:56:58Z</time>
      </trkpt>
      <trkpt lat="49.46479" lon="5.6429">
        <ele>306.7978515625</ele>
        <time>2017-04-02T07:57:04Z</time>
      </trkpt>
      <trkpt lat="49.46472" lon="5.64279">
        <ele>309.68188476562</ele>
        <time>2017-04-02T07:57:13Z</time>
      </trkpt>
      <trkpt lat="49.46473" lon="5.64267">
        <ele>307.27856445312</ele>
        <time>2017-04-02T07:57:17Z</time>
      </trkpt>
      <trkpt lat="49.46476" lon="5.64259">
        <ele>306.31726074219</ele>
        <time>2017-04-02T07:57:21Z</time>
      </trkpt>
      <trkpt lat="49.46483" lon="5.64235">
        <ele>307.27856445312</ele>
        <time>2017-04-02T07:57:31Z</time>
      </trkpt>
      <trkpt lat="49.46492" lon="5.64209">
        <ele>309.68188476562</ele>
        <time>2017-04-02T07:57:40Z</time>
      </trkpt>
      <trkpt lat="49.46493" lon="5.64206">
        <ele>309.68188476562</ele>
        <time>2017-04-02T07:57:41Z</time>
      </trkpt>
      <trkpt lat="49.46494" lon="5.64198">
        <ele>309.68188476562</ele>
        <time>2017-04-02T07:57:45Z</time>
      </trkpt>
      <trkpt lat="49.46499" lon="5.64178">
        <ele>309.68188476562</ele>
        <time>2017-04-02T07:57:52Z</time>
      </trkpt>
      <trkpt lat="49.46508" lon="5.64153">
        <ele>310.16247558594</ele>
        <time>2017-04-02T07:58:02Z</time>
      </trkpt>
      <trkpt lat="49.46516" lon="5.64133">
        <ele>311.6044921875</ele>
        <time>2017-04-02T07:58:07Z</time>
      </trkpt>
      <trkpt lat="49.46534" lon="5.6409">
        <ele>311.6044921875</ele>
        <time>2017-04-02T07:58:19Z</time>
      </trkpt>
      <trkpt lat="49.46536" lon="5.6408">
        <ele>311.6044921875</ele>
        <time>2017-04-02T07:58:22Z</time>
      </trkpt>
      <trkpt lat="49.46538" lon="5.64075">
        <ele>311.6044921875</ele>
        <time>2017-04-02T07:58:24Z</time>
      </trkpt>
      <trkpt lat="49.46547" lon="5.64068">
        <ele>310.64306640625</ele>
        <time>2017-04-02T07:58:28Z</time>
      </trkpt>
      <trkpt lat="49.46562" lon="5.64048">
        <ele>311.6044921875</ele>
        <time>2017-04-02T07:58:32Z</time>
      </trkpt>
      <trkpt lat="49.46579" lon="5.6399">
        <ele>311.6044921875</ele>
        <time>2017-04-02T07:58:42Z</time>
      </trkpt>
      <trkpt lat="49.46581" lon="5.63978">
        <ele>312.08520507812</ele>
        <time>2017-04-02T07:58:45Z</time>
      </trkpt>
      <trkpt lat="49.46585" lon="5.63926">
        <ele>316.41101074219</ele>
        <time>2017-04-02T07:58:58Z</time>
      </trkpt>
      <trkpt lat="49.46587" lon="5.63909">
        <ele>316.89172363281</ele>
        <time>2017-04-02T07:59:04Z</time>
      </trkpt>
      <trkpt lat="49.46591" lon="5.63888">
        <ele>313.04650878906</ele>
        <time>2017-04-02T07:59:09Z</time>
      </trkpt>
      <trkpt lat="49.46596" lon="5.63846">
        <ele>315.93041992188</ele>
        <time>2017-04-02T07:59:23Z</time>
      </trkpt>
      <trkpt lat="49.46601" lon="5.63796">
        <ele>310.16247558594</ele>
        <time>2017-04-02T07:59:35Z</time>
      </trkpt>
      <trkpt lat="49.466" lon="5.63771">
        <ele>308.23986816406</ele>
        <time>2017-04-02T07:59:41Z</time>
      </trkpt>
      <trkpt lat="49.4661" lon="5.63746">
        <ele>305.35595703125</ele>
        <time>2017-04-02T07:59:48Z</time>
      </trkpt>
      <trkpt lat="49.46612" lon="5.63695">
        <ele>306.7978515625</ele>
        <time>2017-04-02T07:59:59Z</time>
      </trkpt>
      <trkpt lat="49.46608" lon="5.63659">
        <ele>306.7978515625</ele>
        <time>2017-04-02T08:00:10Z</time>
      </trkpt>
      <trkpt lat="49.46591" lon="5.63621">
        <ele>306.31726074219</ele>
        <time>2017-04-02T08:00:28Z</time>
      </trkpt>
      <trkpt lat="49.4659" lon="5.63617">
        <ele>306.7978515625</ele>
        <time>2017-04-02T08:00:30Z</time>
      </trkpt>
      <trkpt lat="49.46587" lon="5.63609">
        <ele>308.23986816406</ele>
        <time>2017-04-02T08:00:35Z</time>
      </trkpt>
      <trkpt lat="49.46585" lon="5.63601">
        <ele>307.75927734375</ele>
        <time>2017-04-02T08:00:39Z</time>
      </trkpt>
      <trkpt lat="49.46563" lon="5.63571">
        <ele>308.72045898438</ele>
        <time>2017-04-02T08:01:00Z</time>
      </trkpt>
      <trkpt lat="49.46553" lon="5.63561">
        <ele>308.72045898438</ele>
        <time>2017-04-02T08:01:08Z</time>
      </trkpt>
      <trkpt lat="49.46551" lon="5.63552">
        <ele>308.23986816406</ele>
        <time>2017-04-02T08:01:13Z</time>
      </trkpt>
      <trkpt lat="49.46555" lon="5.63537">
        <ele>305.83666992188</ele>
        <time>2017-04-02T08:01:20Z</time>
      </trkpt>
      <trkpt lat="49.46562" lon="5.63524">
        <ele>302.95251464844</ele>
        <time>2017-04-02T08:01:26Z</time>
      </trkpt>
      <trkpt lat="49.46569" lon="5.63507">
        <ele>301.02990722656</ele>
        <time>2017-04-02T08:01:32Z</time>
      </trkpt>
      <trkpt lat="49.46571" lon="5.63498">
        <ele>301.02990722656</ele>
        <time>2017-04-02T08:01:35Z</time>
      </trkpt>
      <trkpt lat="49.46574" lon="5.6348">
        <ele>301.02990722656</ele>
        <time>2017-04-02T08:01:40Z</time>
      </trkpt>
      <trkpt lat="49.46577" lon="5.63467">
        <ele>299.58801269531</ele>
        <time>2017-04-02T08:01:44Z</time>
      </trkpt>
      <trkpt lat="49.4658" lon="5.6344">
        <ele>297.18469238281</ele>
        <time>2017-04-02T08:01:53Z</time>
      </trkpt>
      <trkpt lat="49.46583" lon="5.63423">
        <ele>298.62670898438</ele>
        <time>2017-04-02T08:01:58Z</time>
      </trkpt>
      <trkpt lat="49.46586" lon="5.63404">
        <ele>298.14611816406</ele>
        <time>2017-04-02T08:02:04Z</time>
      </trkpt>
      <trkpt lat="49.4658" lon="5.63388">
        <ele>301.51062011719</ele>
        <time>2017-04-02T08:02:08Z</time>
      </trkpt>
      <trkpt lat="49.46568" lon="5.63358">
        <ele>303.91394042969</ele>
        <time>2017-04-02T08:02:19Z</time>
      </trkpt>
      <trkpt lat="49.46561" lon="5.63336">
        <ele>301.02990722656</ele>
        <time>2017-04-02T08:02:25Z</time>
      </trkpt>
      <trkpt lat="49.46552" lon="5.63307">
        <ele>298.62670898438</ele>
        <time>2017-04-02T08:02:33Z</time>
      </trkpt>
      <trkpt lat="49.46544" lon="5.63291">
        <ele>297.18469238281</ele>
        <time>2017-04-02T08:02:42Z</time>
      </trkpt>
      <trkpt lat="49.46534" lon="5.63274">
        <ele>296.22351074219</ele>
        <time>2017-04-02T08:02:50Z</time>
      </trkpt>
      <trkpt lat="49.46531" lon="5.63267">
        <ele>296.22351074219</ele>
        <time>2017-04-02T08:02:55Z</time>
      </trkpt>
      <trkpt lat="49.46528" lon="5.63259">
        <ele>295.74267578125</ele>
        <time>2017-04-02T08:02:59Z</time>
      </trkpt>
      <trkpt lat="49.46526" lon="5.63248">
        <ele>295.26196289062</ele>
        <time>2017-04-02T08:03:03Z</time>
      </trkpt>
      <trkpt lat="49.46518" lon="5.63237">
        <ele>296.7041015625</ele>
        <time>2017-04-02T08:03:07Z</time>
      </trkpt>
      <trkpt lat="49.46512" lon="5.63235">
        <ele>298.14611816406</ele>
        <time>2017-04-02T08:03:11Z</time>
      </trkpt>
      <trkpt lat="49.46508" lon="5.63235">
        <ele>298.62670898438</ele>
        <time>2017-04-02T08:03:13Z</time>
      </trkpt>
      <trkpt lat="49.46504" lon="5.63232">
        <ele>300.06872558594</ele>
        <time>2017-04-02T08:03:16Z</time>
      </trkpt>
      <trkpt lat="49.46501" lon="5.6323">
        <ele>301.99133300781</ele>
        <time>2017-04-02T08:03:19Z</time>
      </trkpt>
      <trkpt lat="49.46488" lon="5.63219">
        <ele>304.39465332031</ele>
        <time>2017-04-02T08:03:28Z</time>
      </trkpt>
      <trkpt lat="49.46482" lon="5.63214">
        <ele>306.7978515625</ele>
        <time>2017-04-02T08:03:32Z</time>
      </trkpt>
      <trkpt lat="49.46479" lon="5.63208">
        <ele>306.7978515625</ele>
        <time>2017-04-02T08:03:35Z</time>
      </trkpt>
      <trkpt lat="49.46473" lon="5.63199">
        <ele>306.7978515625</ele>
        <time>2017-04-02T08:03:39Z</time>
      </trkpt>
      <trkpt lat="49.46462" lon="5.63185">
        <ele>308.23986816406</ele>
        <time>2017-04-02T08:03:51Z</time>
      </trkpt>
      <trkpt lat="49.46449" lon="5.6317">
        <ele>312.56579589844</ele>
        <time>2017-04-02T08:04:03Z</time>
      </trkpt>
      <trkpt lat="49.4644" lon="5.63157">
        <ele>314.96911621094</ele>
        <time>2017-04-02T08:04:16Z</time>
      </trkpt>
      <trkpt lat="49.4643" lon="5.63146">
        <ele>316.89172363281</ele>
        <time>2017-04-02T08:04:25Z</time>
      </trkpt>
      <trkpt lat="49.46426" lon="5.63143">
        <ele>316.41101074219</ele>
        <time>2017-04-02T08:04:28Z</time>
      </trkpt>
      <trkpt lat="49.46422" lon="5.63138">
        <ele>315.44982910156</ele>
        <time>2017-04-02T08:04:32Z</time>
      </trkpt>
      <trkpt lat="49.46418" lon="5.63115">
        <ele>317.37243652344</ele>
        <time>2017-04-02T08:04:47Z</time>
      </trkpt>
      <trkpt lat="49.46415" lon="5.63106">
        <ele>320.25634765625</ele>
        <time>2017-04-02T08:04:52Z</time>
      </trkpt>
      <trkpt lat="49.46412" lon="5.63097">
        <ele>324.58227539062</ele>
        <time>2017-04-02T08:04:57Z</time>
      </trkpt>
      <trkpt lat="49.4641" lon="5.63091">
        <ele>325.54357910156</ele>
        <time>2017-04-02T08:05:00Z</time>
      </trkpt>
      <trkpt lat="49.46408" lon="5.63087">
        <ele>327.46618652344</ele>
        <time>2017-04-02T08:05:03Z</time>
      </trkpt>
      <trkpt lat="49.46404" lon="5.63074">
        <ele>331.79211425781</ele>
        <time>2017-04-02T08:05:13Z</time>
      </trkpt>
      <trkpt lat="49.46391" lon="5.63054">
        <ele>329.86950683594</ele>
        <time>2017-04-02T08:05:32Z</time>
      </trkpt>
      <trkpt lat="49.46387" lon="5.63038">
        <ele>330.35021972656</ele>
        <time>2017-04-02T08:05:46Z</time>
      </trkpt>
      <trkpt lat="49.46386" lon="5.63035">
        <ele>328.90832519531</ele>
        <time>2017-04-02T08:05:53Z</time>
      </trkpt>
      <trkpt lat="49.46386" lon="5.63042">
        <ele>328.90832519531</ele>
        <time>2017-04-02T08:05:57Z</time>
      </trkpt>
      <trkpt lat="49.46391" lon="5.63059">
        <ele>327.94677734375</ele>
        <time>2017-04-02T08:06:09Z</time>
      </trkpt>
      <trkpt lat="49.46394" lon="5.63066">
        <ele>328.42761230469</ele>
        <time>2017-04-02T08:06:23Z</time>
      </trkpt>
      <trkpt lat="49.46395" lon="5.63065">
        <ele>328.42761230469</ele>
        <time>2017-04-02T08:10:15Z</time>
      </trkpt>
      <trkpt lat="49.46395" lon="5.63065">
        <ele>327.46618652344</ele>
        <time>2017-04-02T08:10:49Z</time>
      </trkpt>
      <trkpt lat="49.46395" lon="5.63062">
        <ele>327.46618652344</ele>
        <time>2017-04-02T08:12:46Z</time>
      </trkpt>
      <trkpt lat="49.46391" lon="5.63048">
        <ele>329.38891601562</ele>
        <time>2017-04-02T08:12:55Z</time>
      </trkpt>
      <trkpt lat="49.4639" lon="5.63044">
        <ele>329.86950683594</ele>
        <time>2017-04-02T08:12:58Z</time>
      </trkpt>
      <trkpt lat="49.46389" lon="5.6304">
        <ele>330.35021972656</ele>
        <time>2017-04-02T08:13:00Z</time>
      </trkpt>
      <trkpt lat="49.4639" lon="5.63031">
        <ele>328.90832519531</ele>
        <time>2017-04-02T08:13:06Z</time>
      </trkpt>
      <trkpt lat="49.46389" lon="5.63007">
        <ele>326.98559570312</ele>
        <time>2017-04-02T08:13:15Z</time>
      </trkpt>
      <trkpt lat="49.4639" lon="5.63004">
        <ele>327.46618652344</ele>
        <time>2017-04-02T08:13:17Z</time>
      </trkpt>
      <trkpt lat="49.46387" lon="5.62975">
        <ele>330.83093261719</ele>
        <time>2017-04-02T08:13:27Z</time>
      </trkpt>
      <trkpt lat="49.46381" lon="5.62954">
        <ele>333.23413085938</ele>
        <time>2017-04-02T08:13:36Z</time>
      </trkpt>
      <trkpt lat="49.46379" lon="5.62937">
        <ele>334.19543457031</ele>
        <time>2017-04-02T08:13:45Z</time>
      </trkpt>
      <trkpt lat="49.46378" lon="5.62934">
        <ele>335.15673828125</ele>
        <time>2017-04-02T08:13:46Z</time>
      </trkpt>
      <trkpt lat="49.46364" lon="5.62898">
        <ele>336.59887695312</ele>
        <time>2017-04-02T08:14:03Z</time>
      </trkpt>
      <trkpt lat="49.4636" lon="5.62894">
        <ele>336.1181640625</ele>
        <time>2017-04-02T08:14:05Z</time>
      </trkpt>
      <trkpt lat="49.46348" lon="5.62883">
        <ele>339.48266601562</ele>
        <time>2017-04-02T08:14:15Z</time>
      </trkpt>
      <trkpt lat="49.46346" lon="5.62879">
        <ele>340.44409179688</ele>
        <time>2017-04-02T08:14:18Z</time>
      </trkpt>
      <trkpt lat="49.46341" lon="5.62872">
        <ele>340.44409179688</ele>
        <time>2017-04-02T08:14:23Z</time>
      </trkpt>
      <trkpt lat="49.46339" lon="5.62868">
        <ele>340.44409179688</ele>
        <time>2017-04-02T08:14:25Z</time>
      </trkpt>
      <trkpt lat="49.46335" lon="5.62861">
        <ele>339.00207519531</ele>
        <time>2017-04-02T08:14:28Z</time>
      </trkpt>
      <trkpt lat="49.4633" lon="5.62852">
        <ele>340.44409179688</ele>
        <time>2017-04-02T08:14:33Z</time>
      </trkpt>
      <trkpt lat="49.4632" lon="5.62815">
        <ele>334.19543457031</ele>
        <time>2017-04-02T08:14:44Z</time>
      </trkpt>
      <trkpt lat="49.46297" lon="5.62776">
        <ele>331.3115234375</ele>
        <time>2017-04-02T08:14:56Z</time>
      </trkpt>
      <trkpt lat="49.4629" lon="5.62768">
        <ele>330.35021972656</ele>
        <time>2017-04-02T08:15:00Z</time>
      </trkpt>
      <trkpt lat="49.46281" lon="5.6275">
        <ele>331.3115234375</ele>
        <time>2017-04-02T08:15:09Z</time>
      </trkpt>
      <trkpt lat="49.46275" lon="5.62742">
        <ele>331.79211425781</ele>
        <time>2017-04-02T08:15:12Z</time>
      </trkpt>
      <trkpt lat="49.46263" lon="5.62722">
        <ele>332.27282714844</ele>
        <time>2017-04-02T08:15:21Z</time>
      </trkpt>
      <trkpt lat="49.46246" lon="5.627">
        <ele>333.23413085938</ele>
        <time>2017-04-02T08:15:35Z</time>
      </trkpt>
      <trkpt lat="49.46243" lon="5.62697">
        <ele>333.71472167969</ele>
        <time>2017-04-02T08:15:37Z</time>
      </trkpt>
      <trkpt lat="49.46243" lon="5.62694">
        <ele>334.67614746094</ele>
        <time>2017-04-02T08:15:39Z</time>
      </trkpt>
      <trkpt lat="49.46216" lon="5.62665">
        <ele>340.44409179688</ele>
        <time>2017-04-02T08:15:51Z</time>
      </trkpt>
      <trkpt lat="49.46209" lon="5.6266">
        <ele>341.4052734375</ele>
        <time>2017-04-02T08:15:54Z</time>
      </trkpt>
      <trkpt lat="49.46197" lon="5.62648">
        <ele>341.88598632812</ele>
        <time>2017-04-02T08:16:00Z</time>
      </trkpt>
      <trkpt lat="49.4619" lon="5.62633">
        <ele>342.84729003906</ele>
        <time>2017-04-02T08:16:06Z</time>
      </trkpt>
      <trkpt lat="49.46169" lon="5.62611">
        <ele>345.73132324219</ele>
        <time>2017-04-02T08:16:18Z</time>
      </trkpt>
      <trkpt lat="49.46159" lon="5.62603">
        <ele>343.80859375</ele>
        <time>2017-04-02T08:16:25Z</time>
      </trkpt>
      <trkpt lat="49.46154" lon="5.62595">
        <ele>343.32788085938</ele>
        <time>2017-04-02T08:16:30Z</time>
      </trkpt>
      <trkpt lat="49.46152" lon="5.62588">
        <ele>343.32788085938</ele>
        <time>2017-04-02T08:16:34Z</time>
      </trkpt>
      <trkpt lat="49.46151" lon="5.62573">
        <ele>343.80859375</ele>
        <time>2017-04-02T08:16:42Z</time>
      </trkpt>
      <trkpt lat="49.46147" lon="5.62575">
        <ele>342.36669921875</ele>
        <time>2017-04-02T08:16:46Z</time>
      </trkpt>
      <trkpt lat="49.46147" lon="5.6258">
        <ele>339.96337890625</ele>
        <time>2017-04-02T08:16:50Z</time>
      </trkpt>
      <trkpt lat="49.46135" lon="5.62568">
        <ele>339.96337890625</ele>
        <time>2017-04-02T08:17:01Z</time>
      </trkpt>
      <trkpt lat="49.46121" lon="5.62543">
        <ele>339.96337890625</ele>
        <time>2017-04-02T08:17:14Z</time>
      </trkpt>
      <trkpt lat="49.46102" lon="5.62526">
        <ele>338.521484375</ele>
        <time>2017-04-02T08:17:22Z</time>
      </trkpt>
      <trkpt lat="49.4608" lon="5.62506">
        <ele>339.00207519531</ele>
        <time>2017-04-02T08:17:33Z</time>
      </trkpt>
      <trkpt lat="49.46065" lon="5.62483">
        <ele>336.1181640625</ele>
        <time>2017-04-02T08:17:44Z</time>
      </trkpt>
      <trkpt lat="49.46065" lon="5.62469">
        <ele>336.1181640625</ele>
        <time>2017-04-02T08:17:47Z</time>
      </trkpt>
      <trkpt lat="49.46044" lon="5.62439">
        <ele>338.04077148438</ele>
        <time>2017-04-02T08:17:56Z</time>
      </trkpt>
      <trkpt lat="49.4601" lon="5.62419">
        <ele>337.56005859375</ele>
        <time>2017-04-02T08:18:07Z</time>
      </trkpt>
      <trkpt lat="49.45985" lon="5.62405">
        <ele>335.15673828125</ele>
        <time>2017-04-02T08:18:16Z</time>
      </trkpt>
      <trkpt lat="49.45965" lon="5.62395">
        <ele>332.75354003906</ele>
        <time>2017-04-02T08:18:24Z</time>
      </trkpt>
      <trkpt lat="49.45939" lon="5.6238">
        <ele>333.23413085938</ele>
        <time>2017-04-02T08:18:34Z</time>
      </trkpt>
      <trkpt lat="49.45915" lon="5.62355">
        <ele>332.27282714844</ele>
        <time>2017-04-02T08:18:45Z</time>
      </trkpt>
      <trkpt lat="49.45892" lon="5.62335">
        <ele>331.79211425781</ele>
        <time>2017-04-02T08:18:54Z</time>
      </trkpt>
      <trkpt lat="49.45889" lon="5.62334">
        <ele>332.27282714844</ele>
        <time>2017-04-02T08:18:56Z</time>
      </trkpt>
      <trkpt lat="49.45857" lon="5.62303">
        <ele>333.71472167969</ele>
        <time>2017-04-02T08:19:07Z</time>
      </trkpt>
      <trkpt lat="49.45835" lon="5.62283">
        <ele>335.15673828125</ele>
        <time>2017-04-02T08:19:15Z</time>
      </trkpt>
      <trkpt lat="49.45832" lon="5.6228">
        <ele>335.15673828125</ele>
        <time>2017-04-02T08:19:16Z</time>
      </trkpt>
      <trkpt lat="49.45808" lon="5.62254">
        <ele>332.75354003906</ele>
        <time>2017-04-02T08:19:28Z</time>
      </trkpt>
      <trkpt lat="49.45795" lon="5.62247">
        <ele>328.90832519531</ele>
        <time>2017-04-02T08:19:32Z</time>
      </trkpt>
      <trkpt lat="49.45783" lon="5.62248">
        <ele>329.38891601562</ele>
        <time>2017-04-02T08:19:36Z</time>
      </trkpt>
      <trkpt lat="49.45773" lon="5.62252">
        <ele>326.98559570312</ele>
        <time>2017-04-02T08:19:39Z</time>
      </trkpt>
      <trkpt lat="49.45766" lon="5.62246">
        <ele>326.5048828125</ele>
        <time>2017-04-02T08:19:43Z</time>
      </trkpt>
      <trkpt lat="49.45729" lon="5.6217">
        <ele>324.1015625</ele>
        <time>2017-04-02T08:20:05Z</time>
      </trkpt>
      <trkpt lat="49.45695" lon="5.62091">
        <ele>321.69836425781</ele>
        <time>2017-04-02T08:20:25Z</time>
      </trkpt>
      <trkpt lat="49.45667" lon="5.62015">
        <ele>318.81433105469</ele>
        <time>2017-04-02T08:20:43Z</time>
      </trkpt>
      <trkpt lat="49.45647" lon="5.61974">
        <ele>317.37243652344</ele>
        <time>2017-04-02T08:20:55Z</time>
      </trkpt>
      <trkpt lat="49.45599" lon="5.61895">
        <ele>314.48840332031</ele>
        <time>2017-04-02T08:21:23Z</time>
      </trkpt>
      <trkpt lat="49.45568" lon="5.61841">
        <ele>311.6044921875</ele>
        <time>2017-04-02T08:21:42Z</time>
      </trkpt>
      <trkpt lat="49.45548" lon="5.61786">
        <ele>310.64306640625</ele>
        <time>2017-04-02T08:22:01Z</time>
      </trkpt>
      <trkpt lat="49.45541" lon="5.6178">
        <ele>311.6044921875</ele>
        <time>2017-04-02T08:22:04Z</time>
      </trkpt>
      <trkpt lat="49.45537" lon="5.61774">
        <ele>313.52722167969</ele>
        <time>2017-04-02T08:22:09Z</time>
      </trkpt>
      <trkpt lat="49.45527" lon="5.61778">
        <ele>315.93041992188</ele>
        <time>2017-04-02T08:22:15Z</time>
      </trkpt>
      <trkpt lat="49.45521" lon="5.61784">
        <ele>315.93041992188</ele>
        <time>2017-04-02T08:22:20Z</time>
      </trkpt>
      <trkpt lat="49.455" lon="5.61773">
        <ele>314.96911621094</ele>
        <time>2017-04-02T08:22:29Z</time>
      </trkpt>
      <trkpt lat="49.4547" lon="5.61773">
        <ele>315.93041992188</ele>
        <time>2017-04-02T08:22:40Z</time>
      </trkpt>
      <trkpt lat="49.45441" lon="5.61786">
        <ele>315.93041992188</ele>
        <time>2017-04-02T08:22:49Z</time>
      </trkpt>
      <trkpt lat="49.45399" lon="5.61786">
        <ele>313.04650878906</ele>
        <time>2017-04-02T08:23:00Z</time>
      </trkpt>
      <trkpt lat="49.45357" lon="5.61811">
        <ele>310.16247558594</ele>
        <time>2017-04-02T08:23:11Z</time>
      </trkpt>
      <trkpt lat="49.45329" lon="5.61831">
        <ele>309.201171875</ele>
        <time>2017-04-02T08:23:17Z</time>
      </trkpt>
      <trkpt lat="49.45292" lon="5.61873">
        <ele>306.31726074219</ele>
        <time>2017-04-02T08:23:27Z</time>
      </trkpt>
      <trkpt lat="49.45284" lon="5.61875">
        <ele>304.87524414062</ele>
        <time>2017-04-02T08:23:30Z</time>
      </trkpt>
      <trkpt lat="49.45281" lon="5.61883">
        <ele>304.87524414062</ele>
        <time>2017-04-02T08:23:33Z</time>
      </trkpt>
      <trkpt lat="49.45276" lon="5.61891">
        <ele>304.87524414062</ele>
        <time>2017-04-02T08:23:37Z</time>
      </trkpt>
      <trkpt lat="49.45271" lon="5.6189">
        <ele>303.91394042969</ele>
        <time>2017-04-02T08:23:40Z</time>
      </trkpt>
      <trkpt lat="49.45254" lon="5.61904">
        <ele>301.51062011719</ele>
        <time>2017-04-02T08:23:50Z</time>
      </trkpt>
      <trkpt lat="49.45247" lon="5.61911">
        <ele>301.02990722656</ele>
        <time>2017-04-02T08:23:52Z</time>
      </trkpt>
      <trkpt lat="49.45224" lon="5.61948">
        <ele>302.47192382812</ele>
        <time>2017-04-02T08:23:59Z</time>
      </trkpt>
      <trkpt lat="49.45219" lon="5.61956">
        <ele>302.47192382812</ele>
        <time>2017-04-02T08:24:01Z</time>
      </trkpt>
      <trkpt lat="49.45201" lon="5.61957">
        <ele>302.95251464844</ele>
        <time>2017-04-02T08:24:13Z</time>
      </trkpt>
      <trkpt lat="49.45193" lon="5.61955">
        <ele>303.43322753906</ele>
        <time>2017-04-02T08:24:18Z</time>
      </trkpt>
      <trkpt lat="49.4518" lon="5.61941">
        <ele>303.43322753906</ele>
        <time>2017-04-02T08:24:27Z</time>
      </trkpt>
      <trkpt lat="49.45179" lon="5.61939">
        <ele>303.43322753906</ele>
        <time>2017-04-02T08:24:28Z</time>
      </trkpt>
      <trkpt lat="49.45169" lon="5.6191">
        <ele>302.47192382812</ele>
        <time>2017-04-02T08:24:38Z</time>
      </trkpt>
      <trkpt lat="49.45165" lon="5.61903">
        <ele>303.43322753906</ele>
        <time>2017-04-02T08:24:42Z</time>
      </trkpt>
      <trkpt lat="49.45146" lon="5.6189">
        <ele>301.99133300781</ele>
        <time>2017-04-02T08:24:59Z</time>
      </trkpt>
      <trkpt lat="49.45145" lon="5.61889">
        <ele>301.51062011719</ele>
        <time>2017-04-02T08:25:01Z</time>
      </trkpt>
      <trkpt lat="49.45134" lon="5.61882">
        <ele>303.43322753906</ele>
        <time>2017-04-02T08:25:13Z</time>
      </trkpt>
      <trkpt lat="49.45118" lon="5.61878">
        <ele>303.91394042969</ele>
        <time>2017-04-02T08:25:25Z</time>
      </trkpt>
      <trkpt lat="49.45108" lon="5.61874">
        <ele>304.87524414062</ele>
        <time>2017-04-02T08:25:33Z</time>
      </trkpt>
      <trkpt lat="49.45092" lon="5.61878">
        <ele>307.75927734375</ele>
        <time>2017-04-02T08:25:46Z</time>
      </trkpt>
      <trkpt lat="49.45071" lon="5.61877">
        <ele>309.201171875</ele>
        <time>2017-04-02T08:26:01Z</time>
      </trkpt>
      <trkpt lat="49.45051" lon="5.61883">
        <ele>309.68188476562</ele>
        <time>2017-04-02T08:26:17Z</time>
      </trkpt>
      <trkpt lat="49.4504" lon="5.61885">
        <ele>310.64306640625</ele>
        <time>2017-04-02T08:26:26Z</time>
      </trkpt>
      <trkpt lat="49.45017" lon="5.61886">
        <ele>309.68188476562</ele>
        <time>2017-04-02T08:26:43Z</time>
      </trkpt>
      <trkpt lat="49.45015" lon="5.61887">
        <ele>310.16247558594</ele>
        <time>2017-04-02T08:26:45Z</time>
      </trkpt>
      <trkpt lat="49.45007" lon="5.6189">
        <ele>310.16247558594</ele>
        <time>2017-04-02T08:26:51Z</time>
      </trkpt>
      <trkpt lat="49.45" lon="5.61892">
        <ele>309.68188476562</ele>
        <time>2017-04-02T08:26:57Z</time>
      </trkpt>
      <trkpt lat="49.4499" lon="5.61895">
        <ele>308.72045898438</ele>
        <time>2017-04-02T08:27:08Z</time>
      </trkpt>
      <trkpt lat="49.44986" lon="5.61897">
        <ele>308.72045898438</ele>
        <time>2017-04-02T08:27:11Z</time>
      </trkpt>
      <trkpt lat="49.44981" lon="5.61898">
        <ele>308.72045898438</ele>
        <time>2017-04-02T08:27:15Z</time>
      </trkpt>
      <trkpt lat="49.44949" lon="5.61909">
        <ele>308.23986816406</ele>
        <time>2017-04-02T08:27:34Z</time>
      </trkpt>
      <trkpt lat="49.44916" lon="5.61928">
        <ele>308.23986816406</ele>
        <time>2017-04-02T08:27:47Z</time>
      </trkpt>
      <trkpt lat="49.44866" lon="5.61966">
        <ele>308.23986816406</ele>
        <time>2017-04-02T08:28:08Z</time>
      </trkpt>
      <trkpt lat="49.44822" lon="5.6199">
        <ele>309.201171875</ele>
        <time>2017-04-02T08:28:27Z</time>
      </trkpt>
      <trkpt lat="49.44773" lon="5.62012">
        <ele>308.72045898438</ele>
        <time>2017-04-02T08:28:46Z</time>
      </trkpt>
      <trkpt lat="49.44724" lon="5.62046">
        <ele>307.27856445312</ele>
        <time>2017-04-02T08:29:03Z</time>
      </trkpt>
      <trkpt lat="49.44681" lon="5.62077">
        <ele>305.83666992188</ele>
        <time>2017-04-02T08:29:20Z</time>
      </trkpt>
      <trkpt lat="49.44673" lon="5.62079">
        <ele>305.35595703125</ele>
        <time>2017-04-02T08:29:23Z</time>
      </trkpt>
      <trkpt lat="49.44657" lon="5.62043">
        <ele>303.43322753906</ele>
        <time>2017-04-02T08:29:36Z</time>
      </trkpt>
      <trkpt lat="49.4463" lon="5.61955">
        <ele>302.47192382812</ele>
        <time>2017-04-02T08:30:05Z</time>
      </trkpt>
      <trkpt lat="49.44606" lon="5.61877">
        <ele>300.06872558594</ele>
        <time>2017-04-02T08:30:29Z</time>
      </trkpt>
      <trkpt lat="49.44587" lon="5.61813">
        <ele>299.58801269531</ele>
        <time>2017-04-02T08:30:49Z</time>
      </trkpt>
      <trkpt lat="49.44561" lon="5.61726">
        <ele>298.14611816406</ele>
        <time>2017-04-02T08:31:15Z</time>
      </trkpt>
      <trkpt lat="49.44534" lon="5.61638">
        <ele>295.26196289062</ele>
        <time>2017-04-02T08:31:37Z</time>
      </trkpt>
      <trkpt lat="49.44505" lon="5.61539">
        <ele>292.85876464844</ele>
        <time>2017-04-02T08:32:02Z</time>
      </trkpt>
      <trkpt lat="49.44475" lon="5.61444">
        <ele>290.93615722656</ele>
        <time>2017-04-02T08:32:27Z</time>
      </trkpt>
      <trkpt lat="49.44448" lon="5.61348">
        <ele>289.494140625</ele>
        <time>2017-04-02T08:32:53Z</time>
      </trkpt>
      <trkpt lat="49.4442" lon="5.61254">
        <ele>287.0908203125</ele>
        <time>2017-04-02T08:33:18Z</time>
      </trkpt>
      <trkpt lat="49.44395" lon="5.61183">
        <ele>285.64880371094</ele>
        <time>2017-04-02T08:33:37Z</time>
      </trkpt>
      <trkpt lat="49.44356" lon="5.61112">
        <ele>282.76501464844</ele>
        <time>2017-04-02T08:33:58Z</time>
      </trkpt>
      <trkpt lat="49.44339" lon="5.61093">
        <ele>283.24560546875</ele>
        <time>2017-04-02T08:34:08Z</time>
      </trkpt>
      <trkpt lat="49.44318" lon="5.61067">
        <ele>280.36169433594</ele>
        <time>2017-04-02T08:34:16Z</time>
      </trkpt>
      <trkpt lat="49.44304" lon="5.61011">
        <ele>276.9970703125</ele>
        <time>2017-04-02T08:34:28Z</time>
      </trkpt>
      <trkpt lat="49.44303" lon="5.61008">
        <ele>276.9970703125</ele>
        <time>2017-04-02T08:34:29Z</time>
      </trkpt>
      <trkpt lat="49.44283" lon="5.60981">
        <ele>274.11303710938</ele>
        <time>2017-04-02T08:34:44Z</time>
      </trkpt>
      <trkpt lat="49.44269" lon="5.60964">
        <ele>272.67114257812</ele>
        <time>2017-04-02T08:34:50Z</time>
      </trkpt>
      <trkpt lat="49.44262" lon="5.6097">
        <ele>274.59375</ele>
        <time>2017-04-02T08:34:55Z</time>
      </trkpt>
      <trkpt lat="49.44261" lon="5.60975">
        <ele>274.11303710938</ele>
        <time>2017-04-02T08:35:01Z</time>
      </trkpt>
      <trkpt lat="49.44258" lon="5.60974">
        <ele>272.67114257812</ele>
        <time>2017-04-02T08:35:16Z</time>
      </trkpt>
      <trkpt lat="49.44253" lon="5.60988">
        <ele>271.22912597656</ele>
        <time>2017-04-02T08:35:20Z</time>
      </trkpt>
      <trkpt lat="49.44247" lon="5.61027">
        <ele>269.30651855469</ele>
        <time>2017-04-02T08:35:30Z</time>
      </trkpt>
      <trkpt lat="49.44241" lon="5.61044">
        <ele>274.11303710938</ele>
        <time>2017-04-02T08:35:36Z</time>
      </trkpt>
      <trkpt lat="49.44236" lon="5.61092">
        <ele>274.11303710938</ele>
        <time>2017-04-02T08:35:48Z</time>
      </trkpt>
      <trkpt lat="49.44238" lon="5.61129">
        <ele>274.11303710938</ele>
        <time>2017-04-02T08:35:55Z</time>
      </trkpt>
      <trkpt lat="49.44247" lon="5.61146">
        <ele>270.26770019531</ele>
        <time>2017-04-02T08:36:00Z</time>
      </trkpt>
      <trkpt lat="49.44244" lon="5.61164">
        <ele>276.51635742188</ele>
        <time>2017-04-02T08:36:07Z</time>
      </trkpt>
      <trkpt lat="49.44243" lon="5.61173">
        <ele>276.9970703125</ele>
        <time>2017-04-02T08:36:10Z</time>
      </trkpt>
      <trkpt lat="49.44243" lon="5.61184">
        <ele>276.9970703125</ele>
        <time>2017-04-02T08:36:13Z</time>
      </trkpt>
      <trkpt lat="49.44256" lon="5.61228">
        <ele>274.59375</ele>
        <time>2017-04-02T08:36:26Z</time>
      </trkpt>
      <trkpt lat="49.4426" lon="5.61246">
        <ele>275.07446289062</ele>
        <time>2017-04-02T08:36:31Z</time>
      </trkpt>
      <trkpt lat="49.44265" lon="5.6126">
        <ele>277.95825195312</ele>
        <time>2017-04-02T08:36:36Z</time>
      </trkpt>
      <trkpt lat="49.44271" lon="5.61292">
        <ele>277.95825195312</ele>
        <time>2017-04-02T08:36:47Z</time>
      </trkpt>
      <trkpt lat="49.44275" lon="5.61309">
        <ele>279.880859375</ele>
        <time>2017-04-02T08:36:52Z</time>
      </trkpt>
      <trkpt lat="49.44276" lon="5.61358">
        <ele>285.16821289062</ele>
        <time>2017-04-02T08:37:06Z</time>
      </trkpt>
      <trkpt lat="49.44276" lon="5.61373">
        <ele>284.20690917969</ele>
        <time>2017-04-02T08:37:10Z</time>
      </trkpt>
      <trkpt lat="49.44276" lon="5.61389">
        <ele>285.16821289062</ele>
        <time>2017-04-02T08:37:14Z</time>
      </trkpt>
      <trkpt lat="49.44279" lon="5.61407">
        <ele>284.20690917969</ele>
        <time>2017-04-02T08:37:19Z</time>
      </trkpt>
      <trkpt lat="49.44279" lon="5.61427">
        <ele>282.28430175781</ele>
        <time>2017-04-02T08:37:24Z</time>
      </trkpt>
      <trkpt lat="49.44287" lon="5.61435">
        <ele>278.43896484375</ele>
        <time>2017-04-02T08:37:26Z</time>
      </trkpt>
      <trkpt lat="49.44292" lon="5.61501">
        <ele>283.24560546875</ele>
        <time>2017-04-02T08:37:42Z</time>
      </trkpt>
      <trkpt lat="49.44292" lon="5.6152">
        <ele>280.84240722656</ele>
        <time>2017-04-02T08:37:47Z</time>
      </trkpt>
      <trkpt lat="49.44289" lon="5.61539">
        <ele>284.20690917969</ele>
        <time>2017-04-02T08:37:53Z</time>
      </trkpt>
      <trkpt lat="49.44295" lon="5.61573">
        <ele>282.28430175781</ele>
        <time>2017-04-02T08:38:02Z</time>
      </trkpt>
      <trkpt lat="49.44303" lon="5.61597">
        <ele>282.76501464844</ele>
        <time>2017-04-02T08:38:08Z</time>
      </trkpt>
      <trkpt lat="49.44307" lon="5.61633">
        <ele>282.76501464844</ele>
        <time>2017-04-02T08:38:18Z</time>
      </trkpt>
      <trkpt lat="49.44308" lon="5.61644">
        <ele>282.76501464844</ele>
        <time>2017-04-02T08:38:21Z</time>
      </trkpt>
      <trkpt lat="49.44301" lon="5.61707">
        <ele>290.93615722656</ele>
        <time>2017-04-02T08:38:38Z</time>
      </trkpt>
      <trkpt lat="49.44303" lon="5.6174">
        <ele>291.8974609375</ele>
        <time>2017-04-02T08:38:46Z</time>
      </trkpt>
      <trkpt lat="49.44311" lon="5.61777">
        <ele>287.57141113281</ele>
        <time>2017-04-02T08:38:56Z</time>
      </trkpt>
      <trkpt lat="49.44317" lon="5.61813">
        <ele>283.72619628906</ele>
        <time>2017-04-02T08:39:04Z</time>
      </trkpt>
      <trkpt lat="49.4433" lon="5.61836">
        <ele>281.80358886719</ele>
        <time>2017-04-02T08:39:11Z</time>
      </trkpt>
      <trkpt lat="49.44333" lon="5.61841">
        <ele>283.24560546875</ele>
        <time>2017-04-02T08:39:13Z</time>
      </trkpt>
      <trkpt lat="49.44347" lon="5.61855">
        <ele>283.72619628906</ele>
        <time>2017-04-02T08:39:24Z</time>
      </trkpt>
      <trkpt lat="49.44353" lon="5.61861">
        <ele>283.72619628906</ele>
        <time>2017-04-02T08:39:30Z</time>
      </trkpt>
      <trkpt lat="49.44371" lon="5.61878">
        <ele>284.20690917969</ele>
        <time>2017-04-02T08:39:44Z</time>
      </trkpt>
      <trkpt lat="49.44386" lon="5.61897">
        <ele>290.45556640625</ele>
        <time>2017-04-02T08:40:01Z</time>
      </trkpt>
      <trkpt lat="49.44395" lon="5.61907">
        <ele>291.8974609375</ele>
        <time>2017-04-02T08:40:11Z</time>
      </trkpt>
      <trkpt lat="49.44399" lon="5.61912">
        <ele>290.93615722656</ele>
        <time>2017-04-02T08:40:16Z</time>
      </trkpt>
      <trkpt lat="49.4441" lon="5.61938">
        <ele>294.30078125</ele>
        <time>2017-04-02T08:40:30Z</time>
      </trkpt>
      <trkpt lat="49.44416" lon="5.61954">
        <ele>298.14611816406</ele>
        <time>2017-04-02T08:40:39Z</time>
      </trkpt>
      <trkpt lat="49.44419" lon="5.6196">
        <ele>298.14611816406</ele>
        <time>2017-04-02T08:40:42Z</time>
      </trkpt>
      <trkpt lat="49.4443" lon="5.61973">
        <ele>294.30078125</ele>
        <time>2017-04-02T08:40:50Z</time>
      </trkpt>
      <trkpt lat="49.44432" lon="5.61976">
        <ele>294.78137207031</ele>
        <time>2017-04-02T08:40:52Z</time>
      </trkpt>
      <trkpt lat="49.44436" lon="5.61983">
        <ele>295.74267578125</ele>
        <time>2017-04-02T08:40:56Z</time>
      </trkpt>
      <trkpt lat="49.4445" lon="5.62018">
        <ele>295.26196289062</ele>
        <time>2017-04-02T08:41:12Z</time>
      </trkpt>
      <trkpt lat="49.44454" lon="5.62028">
        <ele>294.78137207031</ele>
        <time>2017-04-02T08:41:16Z</time>
      </trkpt>
      <trkpt lat="49.44462" lon="5.62054">
        <ele>295.74267578125</ele>
        <time>2017-04-02T08:41:26Z</time>
      </trkpt>
      <trkpt lat="49.44467" lon="5.62067">
        <ele>297.66540527344</ele>
        <time>2017-04-02T08:41:32Z</time>
      </trkpt>
      <trkpt lat="49.44481" lon="5.62104">
        <ele>297.66540527344</ele>
        <time>2017-04-02T08:41:46Z</time>
      </trkpt>
      <trkpt lat="49.44487" lon="5.62138">
        <ele>297.18469238281</ele>
        <time>2017-04-02T08:41:54Z</time>
      </trkpt>
      <trkpt lat="49.4449" lon="5.62193">
        <ele>295.74267578125</ele>
        <time>2017-04-02T08:42:05Z</time>
      </trkpt>
      <trkpt lat="49.44494" lon="5.62216">
        <ele>295.74267578125</ele>
        <time>2017-04-02T08:42:10Z</time>
      </trkpt>
      <trkpt lat="49.44496" lon="5.62241">
        <ele>295.74267578125</ele>
        <time>2017-04-02T08:42:17Z</time>
      </trkpt>
      <trkpt lat="49.44497" lon="5.62258">
        <ele>298.14611816406</ele>
        <time>2017-04-02T08:42:22Z</time>
      </trkpt>
      <trkpt lat="49.44496" lon="5.6231">
        <ele>299.10729980469</ele>
        <time>2017-04-02T08:42:36Z</time>
      </trkpt>
      <trkpt lat="49.44496" lon="5.62316">
        <ele>298.62670898438</ele>
        <time>2017-04-02T08:42:38Z</time>
      </trkpt>
      <trkpt lat="49.44485" lon="5.62337">
        <ele>296.7041015625</ele>
        <time>2017-04-02T08:42:43Z</time>
      </trkpt>
      <trkpt lat="49.44469" lon="5.62353">
        <ele>292.37817382812</ele>
        <time>2017-04-02T08:42:47Z</time>
      </trkpt>
      <trkpt lat="49.44447" lon="5.62388">
        <ele>288.53295898438</ele>
        <time>2017-04-02T08:42:52Z</time>
      </trkpt>
      <trkpt lat="49.44448" lon="5.62398">
        <ele>284.68762207031</ele>
        <time>2017-04-02T08:42:54Z</time>
      </trkpt>
      <trkpt lat="49.44445" lon="5.6242">
        <ele>283.72619628906</ele>
        <time>2017-04-02T08:43:03Z</time>
      </trkpt>
      <trkpt lat="49.44442" lon="5.62431">
        <ele>284.68762207031</ele>
        <time>2017-04-02T08:43:07Z</time>
      </trkpt>
      <trkpt lat="49.4444" lon="5.62446">
        <ele>285.16821289062</ele>
        <time>2017-04-02T08:43:12Z</time>
      </trkpt>
      <trkpt lat="49.44438" lon="5.62465">
        <ele>285.64880371094</ele>
        <time>2017-04-02T08:43:18Z</time>
      </trkpt>
      <trkpt lat="49.4443" lon="5.62485">
        <ele>285.64880371094</ele>
        <time>2017-04-02T08:43:24Z</time>
      </trkpt>
      <trkpt lat="49.44422" lon="5.62508">
        <ele>281.80358886719</ele>
        <time>2017-04-02T08:43:31Z</time>
      </trkpt>
      <trkpt lat="49.44422" lon="5.62518">
        <ele>280.36169433594</ele>
        <time>2017-04-02T08:43:34Z</time>
      </trkpt>
      <trkpt lat="49.44413" lon="5.62559">
        <ele>279.40026855469</ele>
        <time>2017-04-02T08:43:45Z</time>
      </trkpt>
      <trkpt lat="49.44389" lon="5.62604">
        <ele>269.787109375</ele>
        <time>2017-04-02T08:43:57Z</time>
      </trkpt>
      <trkpt lat="49.44372" lon="5.62632">
        <ele>267.86450195312</ele>
        <time>2017-04-02T08:44:04Z</time>
      </trkpt>
      <trkpt lat="49.44343" lon="5.62668">
        <ele>265.46130371094</ele>
        <time>2017-04-02T08:44:15Z</time>
      </trkpt>
      <trkpt lat="49.44336" lon="5.62674">
        <ele>264.98059082031</ele>
        <time>2017-04-02T08:44:18Z</time>
      </trkpt>
      <trkpt lat="49.44314" lon="5.6269">
        <ele>266.42248535156</ele>
        <time>2017-04-02T08:44:26Z</time>
      </trkpt>
      <trkpt lat="49.44304" lon="5.62708">
        <ele>265.94189453125</ele>
        <time>2017-04-02T08:44:32Z</time>
      </trkpt>
      <trkpt lat="49.44294" lon="5.62707">
        <ele>265.94189453125</ele>
        <time>2017-04-02T08:44:50Z</time>
      </trkpt>
      <trkpt lat="49.4428" lon="5.627">
        <ele>267.38391113281</ele>
        <time>2017-04-02T08:45:00Z</time>
      </trkpt>
      <trkpt lat="49.44256" lon="5.62697">
        <ele>268.82580566406</ele>
        <time>2017-04-02T08:45:12Z</time>
      </trkpt>
      <trkpt lat="49.44243" lon="5.62687">
        <ele>267.86450195312</ele>
        <time>2017-04-02T08:45:19Z</time>
      </trkpt>
      <trkpt lat="49.44215" lon="5.62681">
        <ele>270.26770019531</ele>
        <time>2017-04-02T08:45:32Z</time>
      </trkpt>
      <trkpt lat="49.44189" lon="5.62677">
        <ele>269.30651855469</ele>
        <time>2017-04-02T08:45:44Z</time>
      </trkpt>
      <trkpt lat="49.44169" lon="5.62668">
        <ele>270.26770019531</ele>
        <time>2017-04-02T08:45:55Z</time>
      </trkpt>
      <trkpt lat="49.44147" lon="5.62668">
        <ele>267.86450195312</ele>
        <time>2017-04-02T08:46:06Z</time>
      </trkpt>
      <trkpt lat="49.44131" lon="5.62654">
        <ele>267.38391113281</ele>
        <time>2017-04-02T08:46:15Z</time>
      </trkpt>
      <trkpt lat="49.44104" lon="5.62624">
        <ele>266.42248535156</ele>
        <time>2017-04-02T08:46:29Z</time>
      </trkpt>
      <trkpt lat="49.44091" lon="5.62639">
        <ele>265.46130371094</ele>
        <time>2017-04-02T08:46:37Z</time>
      </trkpt>
      <trkpt lat="49.44089" lon="5.62644">
        <ele>265.94189453125</ele>
        <time>2017-04-02T08:46:39Z</time>
      </trkpt>
      <trkpt lat="49.44075" lon="5.62642">
        <ele>268.34509277344</ele>
        <time>2017-04-02T08:46:48Z</time>
      </trkpt>
      <trkpt lat="49.44048" lon="5.62647">
        <ele>271.70971679688</ele>
        <time>2017-04-02T08:47:00Z</time>
      </trkpt>
      <trkpt lat="49.44035" lon="5.62648">
        <ele>274.59375</ele>
        <time>2017-04-02T08:47:06Z</time>
      </trkpt>
      <trkpt lat="49.44028" lon="5.62648">
        <ele>276.51635742188</ele>
        <time>2017-04-02T08:47:10Z</time>
      </trkpt>
      <trkpt lat="49.44025" lon="5.62646">
        <ele>277.47766113281</ele>
        <time>2017-04-02T08:47:12Z</time>
      </trkpt>
      <trkpt lat="49.44002" lon="5.62648">
        <ele>278.43896484375</ele>
        <time>2017-04-02T08:47:22Z</time>
      </trkpt>
      <trkpt lat="49.43985" lon="5.62652">
        <ele>277.95825195312</ele>
        <time>2017-04-02T08:47:28Z</time>
      </trkpt>
      <trkpt lat="49.43975" lon="5.62654">
        <ele>276.03564453125</ele>
        <time>2017-04-02T08:47:31Z</time>
      </trkpt>
      <trkpt lat="49.43965" lon="5.62646">
        <ele>273.15185546875</ele>
        <time>2017-04-02T08:47:36Z</time>
      </trkpt>
      <trkpt lat="49.43943" lon="5.62648">
        <ele>272.1904296875</ele>
        <time>2017-04-02T08:47:46Z</time>
      </trkpt>
      <trkpt lat="49.43939" lon="5.62651">
        <ele>271.70971679688</ele>
        <time>2017-04-02T08:47:48Z</time>
      </trkpt>
      <trkpt lat="49.43937" lon="5.62656">
        <ele>272.67114257812</ele>
        <time>2017-04-02T08:47:53Z</time>
      </trkpt>
      <trkpt lat="49.43925" lon="5.62648">
        <ele>273.15185546875</ele>
        <time>2017-04-02T08:47:59Z</time>
      </trkpt>
      <trkpt lat="49.43916" lon="5.62654">
        <ele>276.03564453125</ele>
        <time>2017-04-02T08:48:07Z</time>
      </trkpt>
      <trkpt lat="49.43895" lon="5.62669">
        <ele>277.47766113281</ele>
        <time>2017-04-02T08:48:17Z</time>
      </trkpt>
      <trkpt lat="49.43884" lon="5.62703">
        <ele>277.95825195312</ele>
        <time>2017-04-02T08:48:26Z</time>
      </trkpt>
      <trkpt lat="49.43884" lon="5.62738">
        <ele>276.03564453125</ele>
        <time>2017-04-02T08:48:37Z</time>
      </trkpt>
      <trkpt lat="49.43887" lon="5.6277">
        <ele>274.59375</ele>
        <time>2017-04-02T08:48:47Z</time>
      </trkpt>
      <trkpt lat="49.43885" lon="5.62778">
        <ele>275.07446289062</ele>
        <time>2017-04-02T08:48:51Z</time>
      </trkpt>
      <trkpt lat="49.43887" lon="5.62819">
        <ele>272.1904296875</ele>
        <time>2017-04-02T08:49:04Z</time>
      </trkpt>
      <trkpt lat="49.43887" lon="5.62829">
        <ele>271.70971679688</ele>
        <time>2017-04-02T08:49:07Z</time>
      </trkpt>
      <trkpt lat="49.43892" lon="5.6285">
        <ele>271.22912597656</ele>
        <time>2017-04-02T08:49:14Z</time>
      </trkpt>
      <trkpt lat="49.43908" lon="5.62899">
        <ele>266.90319824219</ele>
        <time>2017-04-02T08:49:28Z</time>
      </trkpt>
      <trkpt lat="49.43912" lon="5.62918">
        <ele>264.98059082031</ele>
        <time>2017-04-02T08:49:35Z</time>
      </trkpt>
      <trkpt lat="49.43918" lon="5.62923">
        <ele>265.46130371094</ele>
        <time>2017-04-02T08:49:39Z</time>
      </trkpt>
      <trkpt lat="49.43926" lon="5.62928">
        <ele>265.46130371094</ele>
        <time>2017-04-02T08:49:43Z</time>
      </trkpt>
      <trkpt lat="49.43933" lon="5.62978">
        <ele>262.5771484375</ele>
        <time>2017-04-02T08:50:00Z</time>
      </trkpt>
      <trkpt lat="49.43964" lon="5.63042">
        <ele>262.09655761719</ele>
        <time>2017-04-02T08:50:22Z</time>
      </trkpt>
      <trkpt lat="49.43992" lon="5.63089">
        <ele>262.09655761719</ele>
        <time>2017-04-02T08:50:40Z</time>
      </trkpt>
      <trkpt lat="49.44025" lon="5.63137">
        <ele>263.53857421875</ele>
        <time>2017-04-02T08:51:00Z</time>
      </trkpt>
      <trkpt lat="49.44059" lon="5.63187">
        <ele>264.98059082031</ele>
        <time>2017-04-02T08:51:23Z</time>
      </trkpt>
      <trkpt lat="49.44089" lon="5.63207">
        <ele>266.90319824219</ele>
        <time>2017-04-02T08:51:43Z</time>
      </trkpt>
      <trkpt lat="49.44114" lon="5.63172">
        <ele>266.42248535156</ele>
        <time>2017-04-02T08:51:59Z</time>
      </trkpt>
      <trkpt lat="49.44148" lon="5.63112">
        <ele>267.86450195312</ele>
        <time>2017-04-02T08:52:23Z</time>
      </trkpt>
      <trkpt lat="49.44185" lon="5.63045">
        <ele>266.42248535156</ele>
        <time>2017-04-02T08:52:47Z</time>
      </trkpt>
      <trkpt lat="49.44213" lon="5.62993">
        <ele>265.46130371094</ele>
        <time>2017-04-02T08:53:06Z</time>
      </trkpt>
      <trkpt lat="49.44232" lon="5.62966">
        <ele>264.49987792969</ele>
        <time>2017-04-02T08:53:16Z</time>
      </trkpt>
      <trkpt lat="49.44244" lon="5.62973">
        <ele>264.49987792969</ele>
        <time>2017-04-02T08:53:21Z</time>
      </trkpt>
      <trkpt lat="49.44284" lon="5.63043">
        <ele>265.46130371094</ele>
        <time>2017-04-02T08:53:45Z</time>
      </trkpt>
      <trkpt lat="49.44318" lon="5.63096">
        <ele>265.94189453125</ele>
        <time>2017-04-02T08:54:05Z</time>
      </trkpt>
      <trkpt lat="49.44351" lon="5.63162">
        <ele>266.90319824219</ele>
        <time>2017-04-02T08:54:29Z</time>
      </trkpt>
      <trkpt lat="49.44393" lon="5.63236">
        <ele>270.26770019531</ele>
        <time>2017-04-02T08:54:56Z</time>
      </trkpt>
      <trkpt lat="49.44412" lon="5.63272">
        <ele>271.22912597656</ele>
        <time>2017-04-02T08:55:10Z</time>
      </trkpt>
      <trkpt lat="49.44418" lon="5.63275">
        <ele>271.70971679688</ele>
        <time>2017-04-02T08:55:14Z</time>
      </trkpt>
      <trkpt lat="49.44453" lon="5.63242">
        <ele>271.22912597656</ele>
        <time>2017-04-02T08:55:31Z</time>
      </trkpt>
      <trkpt lat="49.44497" lon="5.63168">
        <ele>272.1904296875</ele>
        <time>2017-04-02T08:55:53Z</time>
      </trkpt>
      <trkpt lat="49.44551" lon="5.6308">
        <ele>275.07446289062</ele>
        <time>2017-04-02T08:56:20Z</time>
      </trkpt>
      <trkpt lat="49.44592" lon="5.6301">
        <ele>276.9970703125</ele>
        <time>2017-04-02T08:56:46Z</time>
      </trkpt>
      <trkpt lat="49.44599" lon="5.63003">
        <ele>276.51635742188</ele>
        <time>2017-04-02T08:56:50Z</time>
      </trkpt>
      <trkpt lat="49.44607" lon="5.63008">
        <ele>276.9970703125</ele>
        <time>2017-04-02T08:56:56Z</time>
      </trkpt>
      <trkpt lat="49.4461" lon="5.63013">
        <ele>277.47766113281</ele>
        <time>2017-04-02T08:57:00Z</time>
      </trkpt>
      <trkpt lat="49.44638" lon="5.63053">
        <ele>278.43896484375</ele>
        <time>2017-04-02T08:57:19Z</time>
      </trkpt>
      <trkpt lat="49.44669" lon="5.63099">
        <ele>278.91967773438</ele>
        <time>2017-04-02T08:57:42Z</time>
      </trkpt>
      <trkpt lat="49.44693" lon="5.63136">
        <ele>280.36169433594</ele>
        <time>2017-04-02T08:58:00Z</time>
      </trkpt>
      <trkpt lat="49.44711" lon="5.63165">
        <ele>280.84240722656</ele>
        <time>2017-04-02T08:58:14Z</time>
      </trkpt>
      <trkpt lat="49.44735" lon="5.63208">
        <ele>280.36169433594</ele>
        <time>2017-04-02T08:58:33Z</time>
      </trkpt>
      <trkpt lat="49.44747" lon="5.63232">
        <ele>282.28430175781</ele>
        <time>2017-04-02T08:58:43Z</time>
      </trkpt>
      <trkpt lat="49.44761" lon="5.63242">
        <ele>282.28430175781</ele>
        <time>2017-04-02T08:58:53Z</time>
      </trkpt>
      <trkpt lat="49.44764" lon="5.63242">
        <ele>283.24560546875</ele>
        <time>2017-04-02T08:58:55Z</time>
      </trkpt>
      <trkpt lat="49.44771" lon="5.63243">
        <ele>286.12951660156</ele>
        <time>2017-04-02T08:58:59Z</time>
      </trkpt>
      <trkpt lat="49.44778" lon="5.63246">
        <ele>286.61022949219</ele>
        <time>2017-04-02T08:59:05Z</time>
      </trkpt>
      <trkpt lat="49.44794" lon="5.63256">
        <ele>292.37817382812</ele>
        <time>2017-04-02T08:59:18Z</time>
      </trkpt>
      <trkpt lat="49.44802" lon="5.63264">
        <ele>295.74267578125</ele>
        <time>2017-04-02T08:59:24Z</time>
      </trkpt>
      <trkpt lat="49.44817" lon="5.63278">
        <ele>301.99133300781</ele>
        <time>2017-04-02T08:59:38Z</time>
      </trkpt>
      <trkpt lat="49.44832" lon="5.63293">
        <ele>307.75927734375</ele>
        <time>2017-04-02T08:59:52Z</time>
      </trkpt>
      <trkpt lat="49.44846" lon="5.63308">
        <ele>307.27856445312</ele>
        <time>2017-04-02T09:00:06Z</time>
      </trkpt>
      <trkpt lat="49.4486" lon="5.63317">
        <ele>306.7978515625</ele>
        <time>2017-04-02T09:00:19Z</time>
      </trkpt>
      <trkpt lat="49.44861" lon="5.63317">
        <ele>306.7978515625</ele>
        <time>2017-04-02T09:00:21Z</time>
      </trkpt>
      <trkpt lat="49.44874" lon="5.63316">
        <ele>305.83666992188</ele>
        <time>2017-04-02T09:00:32Z</time>
      </trkpt>
      <trkpt lat="49.44878" lon="5.63312">
        <ele>305.83666992188</ele>
        <time>2017-04-02T09:00:35Z</time>
      </trkpt>
      <trkpt lat="49.4488" lon="5.63309">
        <ele>306.31726074219</ele>
        <time>2017-04-02T09:00:37Z</time>
      </trkpt>
      <trkpt lat="49.44887" lon="5.63308">
        <ele>306.7978515625</ele>
        <time>2017-04-02T09:00:43Z</time>
      </trkpt>
      <trkpt lat="49.44892" lon="5.63306">
        <ele>306.7978515625</ele>
        <time>2017-04-02T09:00:46Z</time>
      </trkpt>
      <trkpt lat="49.44915" lon="5.6331">
        <ele>306.31726074219</ele>
        <time>2017-04-02T09:01:01Z</time>
      </trkpt>
      <trkpt lat="49.44926" lon="5.6331">
        <ele>306.31726074219</ele>
        <time>2017-04-02T09:01:10Z</time>
      </trkpt>
      <trkpt lat="49.44933" lon="5.6331">
        <ele>307.75927734375</ele>
        <time>2017-04-02T09:01:18Z</time>
      </trkpt>
      <trkpt lat="49.44936" lon="5.63315">
        <ele>306.7978515625</ele>
        <time>2017-04-02T09:01:38Z</time>
      </trkpt>
      <trkpt lat="49.44935" lon="5.63314">
        <ele>306.7978515625</ele>
        <time>2017-04-02T09:01:43Z</time>
      </trkpt>
      <trkpt lat="49.44937" lon="5.63316">
        <ele>305.83666992188</ele>
        <time>2017-04-02T09:02:05Z</time>
      </trkpt>
      <trkpt lat="49.44937" lon="5.63312">
        <ele>307.27856445312</ele>
        <time>2017-04-02T09:07:21Z</time>
      </trkpt>
      <trkpt lat="49.4494" lon="5.63312">
        <ele>309.68188476562</ele>
        <time>2017-04-02T09:07:36Z</time>
      </trkpt>
      <trkpt lat="49.44941" lon="5.63312">
        <ele>310.16247558594</ele>
        <time>2017-04-02T09:07:59Z</time>
      </trkpt>
      <trkpt lat="49.44952" lon="5.63308">
        <ele>311.12377929688</ele>
        <time>2017-04-02T09:08:17Z</time>
      </trkpt>
      <trkpt lat="49.44953" lon="5.63308">
        <ele>311.12377929688</ele>
        <time>2017-04-02T09:10:20Z</time>
      </trkpt>
      <trkpt lat="49.44967" lon="5.63318">
        <ele>311.6044921875</ele>
        <time>2017-04-02T09:10:33Z</time>
      </trkpt>
      <trkpt lat="49.44981" lon="5.63332">
        <ele>311.6044921875</ele>
        <time>2017-04-02T09:10:43Z</time>
      </trkpt>
      <trkpt lat="49.44983" lon="5.63335">
        <ele>311.6044921875</ele>
        <time>2017-04-02T09:10:45Z</time>
      </trkpt>
      <trkpt lat="49.4499" lon="5.63342">
        <ele>311.6044921875</ele>
        <time>2017-04-02T09:10:50Z</time>
      </trkpt>
      <trkpt lat="49.45015" lon="5.63369">
        <ele>311.12377929688</ele>
        <time>2017-04-02T09:11:08Z</time>
      </trkpt>
      <trkpt lat="49.45035" lon="5.63402">
        <ele>309.68188476562</ele>
        <time>2017-04-02T09:11:23Z</time>
      </trkpt>
      <trkpt lat="49.45045" lon="5.63439">
        <ele>307.27856445312</ele>
        <time>2017-04-02T09:11:35Z</time>
      </trkpt>
      <trkpt lat="49.45069" lon="5.63464">
        <ele>306.31726074219</ele>
        <time>2017-04-02T09:11:50Z</time>
      </trkpt>
      <trkpt lat="49.45124" lon="5.63455">
        <ele>302.47192382812</ele>
        <time>2017-04-02T09:12:09Z</time>
      </trkpt>
      <trkpt lat="49.45217" lon="5.63436">
        <ele>301.51062011719</ele>
        <time>2017-04-02T09:12:34Z</time>
      </trkpt>
      <trkpt lat="49.45307" lon="5.63407">
        <ele>302.95251464844</ele>
        <time>2017-04-02T09:12:59Z</time>
      </trkpt>
      <trkpt lat="49.45395" lon="5.63373">
        <ele>299.58801269531</ele>
        <time>2017-04-02T09:13:25Z</time>
      </trkpt>
      <trkpt lat="49.45481" lon="5.63383">
        <ele>299.58801269531</ele>
        <time>2017-04-02T09:13:47Z</time>
      </trkpt>
      <trkpt lat="49.45536" lon="5.63393">
        <ele>301.02990722656</ele>
        <time>2017-04-02T09:14:03Z</time>
      </trkpt>
      <trkpt lat="49.45613" lon="5.63383">
        <ele>301.99133300781</ele>
        <time>2017-04-02T09:14:25Z</time>
      </trkpt>
      <trkpt lat="49.45734" lon="5.63359">
        <ele>302.95251464844</ele>
        <time>2017-04-02T09:14:59Z</time>
      </trkpt>
      <trkpt lat="49.45831" lon="5.63327">
        <ele>305.35595703125</ele>
        <time>2017-04-02T09:15:28Z</time>
      </trkpt>
      <trkpt lat="49.45881" lon="5.63342">
        <ele>306.31726074219</ele>
        <time>2017-04-02T09:15:43Z</time>
      </trkpt>
      <trkpt lat="49.45933" lon="5.6337">
        <ele>307.75927734375</ele>
        <time>2017-04-02T09:16:02Z</time>
      </trkpt>
      <trkpt lat="49.46" lon="5.63379">
        <ele>310.16247558594</ele>
        <time>2017-04-02T09:16:25Z</time>
      </trkpt>
      <trkpt lat="49.4605" lon="5.63441">
        <ele>310.64306640625</ele>
        <time>2017-04-02T09:16:46Z</time>
      </trkpt>
      <trkpt lat="49.46117" lon="5.63525">
        <ele>312.08520507812</ele>
        <time>2017-04-02T09:17:15Z</time>
      </trkpt>
      <trkpt lat="49.46173" lon="5.63599">
        <ele>316.41101074219</ele>
        <time>2017-04-02T09:17:41Z</time>
      </trkpt>
      <trkpt lat="49.46182" lon="5.63637">
        <ele>318.33361816406</ele>
        <time>2017-04-02T09:17:51Z</time>
      </trkpt>
      <trkpt lat="49.46199" lon="5.63647">
        <ele>319.29504394531</ele>
        <time>2017-04-02T09:17:59Z</time>
      </trkpt>
      <trkpt lat="49.46239" lon="5.63623">
        <ele>316.89172363281</ele>
        <time>2017-04-02T09:18:14Z</time>
      </trkpt>
      <trkpt lat="49.46291" lon="5.63606">
        <ele>313.04650878906</ele>
        <time>2017-04-02T09:18:25Z</time>
      </trkpt>
      <trkpt lat="49.46303" lon="5.63606">
        <ele>312.56579589844</ele>
        <time>2017-04-02T09:18:27Z</time>
      </trkpt>
      <trkpt lat="49.46369" lon="5.63626">
        <ele>309.68188476562</ele>
        <time>2017-04-02T09:18:38Z</time>
      </trkpt>
      <trkpt lat="49.4645" lon="5.63588">
        <ele>305.83666992188</ele>
        <time>2017-04-02T09:18:52Z</time>
      </trkpt>
      <trkpt lat="49.4653" lon="5.63564">
        <ele>299.58801269531</ele>
        <time>2017-04-02T09:19:03Z</time>
      </trkpt>
      <trkpt lat="49.46581" lon="5.63606">
        <ele>296.22351074219</ele>
        <time>2017-04-02T09:19:11Z</time>
      </trkpt>
      <trkpt lat="49.466" lon="5.63653">
        <ele>294.78137207031</ele>
        <time>2017-04-02T09:19:16Z</time>
      </trkpt>
      <trkpt lat="49.4661" lon="5.63702">
        <ele>293.33935546875</ele>
        <time>2017-04-02T09:19:23Z</time>
      </trkpt>
      <trkpt lat="49.4661" lon="5.63716">
        <ele>292.85876464844</ele>
        <time>2017-04-02T09:19:25Z</time>
      </trkpt>
      <trkpt lat="49.46603" lon="5.63754">
        <ele>291.41674804688</ele>
        <time>2017-04-02T09:19:32Z</time>
      </trkpt>
      <trkpt lat="49.46598" lon="5.63801">
        <ele>303.43322753906</ele>
        <time>2017-04-02T09:19:43Z</time>
      </trkpt>
      <trkpt lat="49.46599" lon="5.63808">
        <ele>305.83666992188</ele>
        <time>2017-04-02T09:19:45Z</time>
      </trkpt>
      <trkpt lat="49.46593" lon="5.63859">
        <ele>310.16247558594</ele>
        <time>2017-04-02T09:19:55Z</time>
      </trkpt>
      <trkpt lat="49.46594" lon="5.63889">
        <ele>312.08520507812</ele>
        <time>2017-04-02T09:20:08Z</time>
      </trkpt>
      <trkpt lat="49.46591" lon="5.63923">
        <ele>314.0078125</ele>
        <time>2017-04-02T09:20:16Z</time>
      </trkpt>
      <trkpt lat="49.46586" lon="5.63941">
        <ele>312.08520507812</ele>
        <time>2017-04-02T09:20:20Z</time>
      </trkpt>
      <trkpt lat="49.46583" lon="5.63959">
        <ele>310.16247558594</ele>
        <time>2017-04-02T09:20:23Z</time>
      </trkpt>
      <trkpt lat="49.46576" lon="5.64005">
        <ele>310.64306640625</ele>
        <time>2017-04-02T09:20:33Z</time>
      </trkpt>
      <trkpt lat="49.46563" lon="5.64045">
        <ele>309.201171875</ele>
        <time>2017-04-02T09:20:45Z</time>
      </trkpt>
      <trkpt lat="49.46562" lon="5.64051">
        <ele>310.16247558594</ele>
        <time>2017-04-02T09:20:48Z</time>
      </trkpt>
      <trkpt lat="49.46553" lon="5.64055">
        <ele>309.201171875</ele>
        <time>2017-04-02T09:20:53Z</time>
      </trkpt>
      <trkpt lat="49.46546" lon="5.64064">
        <ele>312.56579589844</ele>
        <time>2017-04-02T09:20:58Z</time>
      </trkpt>
      <trkpt lat="49.46541" lon="5.64075">
        <ele>314.48840332031</ele>
        <time>2017-04-02T09:21:03Z</time>
      </trkpt>
      <trkpt lat="49.46531" lon="5.64096">
        <ele>312.56579589844</ele>
        <time>2017-04-02T09:21:13Z</time>
      </trkpt>
      <trkpt lat="49.46518" lon="5.64124">
        <ele>308.23986816406</ele>
        <time>2017-04-02T09:21:25Z</time>
      </trkpt>
      <trkpt lat="49.46503" lon="5.64161">
        <ele>304.39465332031</ele>
        <time>2017-04-02T09:21:36Z</time>
      </trkpt>
      <trkpt lat="49.46498" lon="5.64172">
        <ele>304.87524414062</ele>
        <time>2017-04-02T09:21:40Z</time>
      </trkpt>
      <trkpt lat="49.46489" lon="5.64202">
        <ele>305.83666992188</ele>
        <time>2017-04-02T09:21:50Z</time>
      </trkpt>
      <trkpt lat="49.4648" lon="5.64236">
        <ele>306.7978515625</ele>
        <time>2017-04-02T09:22:02Z</time>
      </trkpt>
      <trkpt lat="49.46475" lon="5.64271">
        <ele>309.201171875</ele>
        <time>2017-04-02T09:22:11Z</time>
      </trkpt>
      <trkpt lat="49.46494" lon="5.64292">
        <ele>303.91394042969</ele>
        <time>2017-04-02T09:22:18Z</time>
      </trkpt>
      <trkpt lat="49.46494" lon="5.64296">
        <ele>302.95251464844</ele>
        <time>2017-04-02T09:22:19Z</time>
      </trkpt>
      <trkpt lat="49.4649" lon="5.64331">
        <ele>304.87524414062</ele>
        <time>2017-04-02T09:22:31Z</time>
      </trkpt>
      <trkpt lat="49.46487" lon="5.64356">
        <ele>303.91394042969</ele>
        <time>2017-04-02T09:22:48Z</time>
      </trkpt>
      <trkpt lat="49.46482" lon="5.64394">
        <ele>306.7978515625</ele>
        <time>2017-04-02T09:22:57Z</time>
      </trkpt>
      <trkpt lat="49.46481" lon="5.64418">
        <ele>311.6044921875</ele>
        <time>2017-04-02T09:23:04Z</time>
      </trkpt>
      <trkpt lat="49.46486" lon="5.64436">
        <ele>311.12377929688</ele>
        <time>2017-04-02T09:23:10Z</time>
      </trkpt>
      <trkpt lat="49.46484" lon="5.64445">
        <ele>310.16247558594</ele>
        <time>2017-04-02T09:23:14Z</time>
      </trkpt>
      <trkpt lat="49.46477" lon="5.64459">
        <ele>308.23986816406</ele>
        <time>2017-04-02T09:23:20Z</time>
      </trkpt>
      <trkpt lat="49.46471" lon="5.64476">
        <ele>306.31726074219</ele>
        <time>2017-04-02T09:23:27Z</time>
      </trkpt>
      <trkpt lat="49.46468" lon="5.64497">
        <ele>305.35595703125</ele>
        <time>2017-04-02T09:23:33Z</time>
      </trkpt>
      <trkpt lat="49.46463" lon="5.64512">
        <ele>305.35595703125</ele>
        <time>2017-04-02T09:23:38Z</time>
      </trkpt>
      <trkpt lat="49.46457" lon="5.64552">
        <ele>311.12377929688</ele>
        <time>2017-04-02T09:23:51Z</time>
      </trkpt>
      <trkpt lat="49.46459" lon="5.64569">
        <ele>314.0078125</ele>
        <time>2017-04-02T09:23:56Z</time>
      </trkpt>
      <trkpt lat="49.4646" lon="5.64586">
        <ele>314.96911621094</ele>
        <time>2017-04-02T09:23:59Z</time>
      </trkpt>
      <trkpt lat="49.46458" lon="5.64608">
        <ele>312.08520507812</ele>
        <time>2017-04-02T09:24:06Z</time>
      </trkpt>
      <trkpt lat="49.4646" lon="5.64618">
        <ele>310.16247558594</ele>
        <time>2017-04-02T09:24:09Z</time>
      </trkpt>
      <trkpt lat="49.4646" lon="5.6463">
        <ele>308.23986816406</ele>
        <time>2017-04-02T09:24:14Z</time>
      </trkpt>
      <trkpt lat="49.46459" lon="5.64634">
        <ele>307.75927734375</ele>
        <time>2017-04-02T09:24:16Z</time>
      </trkpt>
      <trkpt lat="49.46461" lon="5.64646">
        <ele>306.31726074219</ele>
        <time>2017-04-02T09:24:19Z</time>
      </trkpt>
      <trkpt lat="49.46464" lon="5.64685">
        <ele>305.83666992188</ele>
        <time>2017-04-02T09:24:28Z</time>
      </trkpt>
      <trkpt lat="49.46466" lon="5.64697">
        <ele>306.31726074219</ele>
        <time>2017-04-02T09:24:32Z</time>
      </trkpt>
      <trkpt lat="49.46473" lon="5.64716">
        <ele>305.35595703125</ele>
        <time>2017-04-02T09:24:37Z</time>
      </trkpt>
      <trkpt lat="49.46477" lon="5.64738">
        <ele>298.62670898438</ele>
        <time>2017-04-02T09:24:47Z</time>
      </trkpt>
      <trkpt lat="49.46478" lon="5.64745">
        <ele>299.10729980469</ele>
        <time>2017-04-02T09:25:05Z</time>
      </trkpt>
      <trkpt lat="49.46476" lon="5.64756">
        <ele>301.02990722656</ele>
        <time>2017-04-02T09:25:12Z</time>
      </trkpt>
      <trkpt lat="49.46472" lon="5.64774">
        <ele>303.91394042969</ele>
        <time>2017-04-02T09:25:24Z</time>
      </trkpt>
      <trkpt lat="49.46475" lon="5.6478">
        <ele>304.87524414062</ele>
        <time>2017-04-02T09:25:28Z</time>
      </trkpt>
      <trkpt lat="49.46487" lon="5.64817">
        <ele>303.91394042969</ele>
        <time>2017-04-02T09:25:40Z</time>
      </trkpt>
      <trkpt lat="49.46493" lon="5.64846">
        <ele>304.87524414062</ele>
        <time>2017-04-02T09:25:50Z</time>
      </trkpt>
      <trkpt lat="49.46492" lon="5.64862">
        <ele>303.43322753906</ele>
        <time>2017-04-02T09:25:55Z</time>
      </trkpt>
      <trkpt lat="49.46493" lon="5.64888">
        <ele>304.87524414062</ele>
        <time>2017-04-02T09:26:07Z</time>
      </trkpt>
      <trkpt lat="49.46492" lon="5.64897">
        <ele>305.83666992188</ele>
        <time>2017-04-02T09:26:11Z</time>
      </trkpt>
      <trkpt lat="49.4649" lon="5.64934">
        <ele>309.201171875</ele>
        <time>2017-04-02T09:26:24Z</time>
      </trkpt>
      <trkpt lat="49.46491" lon="5.64944">
        <ele>312.08520507812</ele>
        <time>2017-04-02T09:26:28Z</time>
      </trkpt>
      <trkpt lat="49.46492" lon="5.64947">
        <ele>312.08520507812</ele>
        <time>2017-04-02T09:26:30Z</time>
      </trkpt>
      <trkpt lat="49.46491" lon="5.64975">
        <ele>314.0078125</ele>
        <time>2017-04-02T09:26:44Z</time>
      </trkpt>
      <trkpt lat="49.46492" lon="5.64978">
        <ele>313.04650878906</ele>
        <time>2017-04-02T09:26:45Z</time>
      </trkpt>
      <trkpt lat="49.46496" lon="5.64995">
        <ele>313.52722167969</ele>
        <time>2017-04-02T09:26:56Z</time>
      </trkpt>
      <trkpt lat="49.46508" lon="5.65018">
        <ele>316.89172363281</ele>
        <time>2017-04-02T09:27:04Z</time>
      </trkpt>
      <trkpt lat="49.46518" lon="5.6504">
        <ele>315.93041992188</ele>
        <time>2017-04-02T09:27:12Z</time>
      </trkpt>
      <trkpt lat="49.46523" lon="5.65047">
        <ele>315.44982910156</ele>
        <time>2017-04-02T09:27:15Z</time>
      </trkpt>
      <trkpt lat="49.46528" lon="5.65054">
        <ele>314.96911621094</ele>
        <time>2017-04-02T09:27:18Z</time>
      </trkpt>
      <trkpt lat="49.46545" lon="5.6509">
        <ele>318.81433105469</ele>
        <time>2017-04-02T09:27:30Z</time>
      </trkpt>
      <trkpt lat="49.4655" lon="5.65098">
        <ele>318.33361816406</ele>
        <time>2017-04-02T09:27:33Z</time>
      </trkpt>
      <trkpt lat="49.46573" lon="5.6513">
        <ele>316.41101074219</ele>
        <time>2017-04-02T09:27:45Z</time>
      </trkpt>
      <trkpt lat="49.46587" lon="5.65153">
        <ele>321.69836425781</ele>
        <time>2017-04-02T09:27:55Z</time>
      </trkpt>
      <trkpt lat="49.46602" lon="5.65174">
        <ele>322.65966796875</ele>
        <time>2017-04-02T09:28:01Z</time>
      </trkpt>
      <trkpt lat="49.46611" lon="5.65181">
        <ele>320.25634765625</ele>
        <time>2017-04-02T09:28:05Z</time>
      </trkpt>
      <trkpt lat="49.46622" lon="5.65205">
        <ele>320.25634765625</ele>
        <time>2017-04-02T09:28:12Z</time>
      </trkpt>
      <trkpt lat="49.46627" lon="5.6522">
        <ele>318.81433105469</ele>
        <time>2017-04-02T09:28:16Z</time>
      </trkpt>
      <trkpt lat="49.46628" lon="5.65233">
        <ele>318.81433105469</ele>
        <time>2017-04-02T09:28:19Z</time>
      </trkpt>
      <trkpt lat="49.46632" lon="5.65241">
        <ele>321.2177734375</ele>
        <time>2017-04-02T09:28:23Z</time>
      </trkpt>
      <trkpt lat="49.46632" lon="5.65244">
        <ele>319.29504394531</ele>
        <time>2017-04-02T09:28:25Z</time>
      </trkpt>
      <trkpt lat="49.46647" lon="5.65246">
        <ele>315.93041992188</ele>
        <time>2017-04-02T09:28:32Z</time>
      </trkpt>
      <trkpt lat="49.4665" lon="5.65247">
        <ele>315.44982910156</ele>
        <time>2017-04-02T09:28:33Z</time>
      </trkpt>
      <trkpt lat="49.46659" lon="5.65246">
        <ele>312.56579589844</ele>
        <time>2017-04-02T09:28:36Z</time>
      </trkpt>
      <trkpt lat="49.46673" lon="5.65241">
        <ele>310.16247558594</ele>
        <time>2017-04-02T09:28:39Z</time>
      </trkpt>
      <trkpt lat="49.46702" lon="5.65246">
        <ele>309.68188476562</ele>
        <time>2017-04-02T09:28:44Z</time>
      </trkpt>
      <trkpt lat="49.46714" lon="5.65246">
        <ele>309.68188476562</ele>
        <time>2017-04-02T09:28:46Z</time>
      </trkpt>
      <trkpt lat="49.46732" lon="5.65252">
        <ele>308.72045898438</ele>
        <time>2017-04-02T09:28:49Z</time>
      </trkpt>
      <trkpt lat="49.46767" lon="5.65266">
        <ele>308.72045898438</ele>
        <time>2017-04-02T09:29:00Z</time>
      </trkpt>
      <trkpt lat="49.46786" lon="5.65274">
        <ele>308.72045898438</ele>
        <time>2017-04-02T09:29:11Z</time>
      </trkpt>
      <trkpt lat="49.4681" lon="5.65281">
        <ele>307.27856445312</ele>
        <time>2017-04-02T09:29:22Z</time>
      </trkpt>
      <trkpt lat="49.46837" lon="5.65287">
        <ele>304.39465332031</ele>
        <time>2017-04-02T09:29:31Z</time>
      </trkpt>
      <trkpt lat="49.46855" lon="5.65291">
        <ele>301.02990722656</ele>
        <time>2017-04-02T09:29:40Z</time>
      </trkpt>
      <trkpt lat="49.46856" lon="5.6529">
        <ele>300.06872558594</ele>
        <time>2017-04-02T09:29:41Z</time>
      </trkpt>
      <trkpt lat="49.4686" lon="5.65276">
        <ele>300.06872558594</ele>
        <time>2017-04-02T09:29:45Z</time>
      </trkpt>
      <trkpt lat="49.4686" lon="5.65264">
        <ele>300.06872558594</ele>
        <time>2017-04-02T09:29:47Z</time>
      </trkpt>
      <trkpt lat="49.46871" lon="5.65241">
        <ele>303.43322753906</ele>
        <time>2017-04-02T09:29:51Z</time>
      </trkpt>
      <trkpt lat="49.46891" lon="5.6524">
        <ele>306.31726074219</ele>
        <time>2017-04-02T09:30:04Z</time>
      </trkpt>
      <trkpt lat="49.46892" lon="5.65239">
        <ele>306.31726074219</ele>
        <time>2017-04-02T09:30:05Z</time>
      </trkpt>
      <trkpt lat="49.469" lon="5.65238">
        <ele>310.16247558594</ele>
        <time>2017-04-02T09:30:09Z</time>
      </trkpt>
      <trkpt lat="49.46929" lon="5.6524">
        <ele>306.7978515625</ele>
        <time>2017-04-02T09:30:19Z</time>
      </trkpt>
      <trkpt lat="49.46956" lon="5.65237">
        <ele>298.14611816406</ele>
        <time>2017-04-02T09:30:31Z</time>
      </trkpt>
      <trkpt lat="49.46961" lon="5.65232">
        <ele>295.74267578125</ele>
        <time>2017-04-02T09:30:35Z</time>
      </trkpt>
      <trkpt lat="49.4697" lon="5.65238">
        <ele>292.85876464844</ele>
        <time>2017-04-02T09:30:39Z</time>
      </trkpt>
      <trkpt lat="49.47002" lon="5.65302">
        <ele>286.12951660156</ele>
        <time>2017-04-02T09:30:47Z</time>
      </trkpt>
      <trkpt lat="49.47031" lon="5.65353">
        <ele>280.84240722656</ele>
        <time>2017-04-02T09:30:51Z</time>
      </trkpt>
      <trkpt lat="49.47036" lon="5.65406">
        <ele>277.47766113281</ele>
        <time>2017-04-02T09:30:57Z</time>
      </trkpt>
      <trkpt lat="49.47037" lon="5.65407">
        <ele>276.9970703125</ele>
        <time>2017-04-02T09:31:09Z</time>
      </trkpt>
      <trkpt lat="49.47042" lon="5.65423">
        <ele>275.55505371094</ele>
        <time>2017-04-02T09:31:14Z</time>
      </trkpt>
      <trkpt lat="49.47061" lon="5.65479">
        <ele>274.59375</ele>
        <time>2017-04-02T09:31:26Z</time>
      </trkpt>
      <trkpt lat="49.47067" lon="5.65502">
        <ele>276.51635742188</ele>
        <time>2017-04-02T09:31:32Z</time>
      </trkpt>
      <trkpt lat="49.47087" lon="5.65554">
        <ele>281.32299804688</ele>
        <time>2017-04-02T09:31:45Z</time>
      </trkpt>
      <trkpt lat="49.47091" lon="5.65559">
        <ele>281.32299804688</ele>
        <time>2017-04-02T09:31:47Z</time>
      </trkpt>
      <trkpt lat="49.47098" lon="5.6561">
        <ele>283.72619628906</ele>
        <time>2017-04-02T09:32:02Z</time>
      </trkpt>
      <trkpt lat="49.47111" lon="5.65652">
        <ele>289.494140625</ele>
        <time>2017-04-02T09:32:12Z</time>
      </trkpt>
      <trkpt lat="49.4712" lon="5.65686">
        <ele>294.78137207031</ele>
        <time>2017-04-02T09:32:21Z</time>
      </trkpt>
      <trkpt lat="49.47123" lon="5.65699">
        <ele>295.26196289062</ele>
        <time>2017-04-02T09:32:25Z</time>
      </trkpt>
      <trkpt lat="49.47127" lon="5.65718">
        <ele>293.82006835938</ele>
        <time>2017-04-02T09:32:30Z</time>
      </trkpt>
      <trkpt lat="49.47133" lon="5.65741">
        <ele>292.37817382812</ele>
        <time>2017-04-02T09:32:37Z</time>
      </trkpt>
      <trkpt lat="49.47142" lon="5.65777">
        <ele>291.41674804688</ele>
        <time>2017-04-02T09:32:48Z</time>
      </trkpt>
      <trkpt lat="49.47155" lon="5.65807">
        <ele>293.33935546875</ele>
        <time>2017-04-02T09:32:57Z</time>
      </trkpt>
      <trkpt lat="49.47159" lon="5.65827">
        <ele>293.33935546875</ele>
        <time>2017-04-02T09:33:06Z</time>
      </trkpt>
      <trkpt lat="49.47165" lon="5.65839">
        <ele>292.37817382812</ele>
        <time>2017-04-02T09:33:12Z</time>
      </trkpt>
      <trkpt lat="49.47184" lon="5.65873">
        <ele>292.85876464844</ele>
        <time>2017-04-02T09:33:23Z</time>
      </trkpt>
      <trkpt lat="49.47184" lon="5.65879">
        <ele>292.37817382812</ele>
        <time>2017-04-02T09:33:28Z</time>
      </trkpt>
      <trkpt lat="49.47185" lon="5.65889">
        <ele>290.93615722656</ele>
        <time>2017-04-02T09:33:32Z</time>
      </trkpt>
      <trkpt lat="49.4717" lon="5.65916">
        <ele>283.24560546875</ele>
        <time>2017-04-02T09:33:44Z</time>
      </trkpt>
      <trkpt lat="49.47156" lon="5.65935">
        <ele>281.32299804688</ele>
        <time>2017-04-02T09:33:54Z</time>
      </trkpt>
      <trkpt lat="49.47138" lon="5.6595">
        <ele>286.61022949219</ele>
        <time>2017-04-02T09:34:07Z</time>
      </trkpt>
      <trkpt lat="49.47134" lon="5.65952">
        <ele>288.05224609375</ele>
        <time>2017-04-02T09:34:10Z</time>
      </trkpt>
      <trkpt lat="49.4712" lon="5.6596">
        <ele>292.85876464844</ele>
        <time>2017-04-02T09:34:19Z</time>
      </trkpt>
      <trkpt lat="49.4711" lon="5.65968">
        <ele>295.26196289062</ele>
        <time>2017-04-02T09:34:27Z</time>
      </trkpt>
      <trkpt lat="49.47093" lon="5.65985">
        <ele>292.37817382812</ele>
        <time>2017-04-02T09:34:37Z</time>
      </trkpt>
      <trkpt lat="49.47073" lon="5.65998">
        <ele>293.82006835938</ele>
        <time>2017-04-02T09:34:50Z</time>
      </trkpt>
      <trkpt lat="49.47058" lon="5.6601">
        <ele>291.8974609375</ele>
        <time>2017-04-02T09:35:00Z</time>
      </trkpt>
      <trkpt lat="49.4704" lon="5.66029">
        <ele>289.01354980469</ele>
        <time>2017-04-02T09:35:15Z</time>
      </trkpt>
      <trkpt lat="49.47026" lon="5.66041">
        <ele>288.53295898438</ele>
        <time>2017-04-02T09:35:25Z</time>
      </trkpt>
      <trkpt lat="49.47002" lon="5.66055">
        <ele>288.05224609375</ele>
        <time>2017-04-02T09:35:40Z</time>
      </trkpt>
      <trkpt lat="49.46984" lon="5.66063">
        <ele>286.12951660156</ele>
        <time>2017-04-02T09:35:50Z</time>
      </trkpt>
      <trkpt lat="49.46978" lon="5.66064">
        <ele>285.64880371094</ele>
        <time>2017-04-02T09:35:54Z</time>
      </trkpt>
      <trkpt lat="49.46971" lon="5.66067">
        <ele>286.61022949219</ele>
        <time>2017-04-02T09:36:00Z</time>
      </trkpt>
      <trkpt lat="49.46932" lon="5.6608">
        <ele>289.01354980469</ele>
        <time>2017-04-02T09:36:24Z</time>
      </trkpt>
      <trkpt lat="49.46889" lon="5.66105">
        <ele>289.494140625</ele>
        <time>2017-04-02T09:36:46Z</time>
      </trkpt>
      <trkpt lat="49.46856" lon="5.66123">
        <ele>289.01354980469</ele>
        <time>2017-04-02T09:37:03Z</time>
      </trkpt>
      <trkpt lat="49.46812" lon="5.66146">
        <ele>289.97485351562</ele>
        <time>2017-04-02T09:37:25Z</time>
      </trkpt>
      <trkpt lat="49.46773" lon="5.66163">
        <ele>291.41674804688</ele>
        <time>2017-04-02T09:37:44Z</time>
      </trkpt>
      <trkpt lat="49.46771" lon="5.66165">
        <ele>291.41674804688</ele>
        <time>2017-04-02T09:37:45Z</time>
      </trkpt>
      <trkpt lat="49.4676" lon="5.6617">
        <ele>291.41674804688</ele>
        <time>2017-04-02T09:37:50Z</time>
      </trkpt>
      <trkpt lat="49.4672" lon="5.66209">
        <ele>289.494140625</ele>
        <time>2017-04-02T09:38:04Z</time>
      </trkpt>
      <trkpt lat="49.46707" lon="5.66229">
        <ele>288.53295898438</ele>
        <time>2017-04-02T09:38:09Z</time>
      </trkpt>
      <trkpt lat="49.46699" lon="5.66244">
        <ele>287.0908203125</ele>
        <time>2017-04-02T09:38:12Z</time>
      </trkpt>
      <trkpt lat="49.46691" lon="5.66315">
        <ele>284.20690917969</ele>
        <time>2017-04-02T09:38:23Z</time>
      </trkpt>
      <trkpt lat="49.46692" lon="5.66321">
        <ele>284.20690917969</ele>
        <time>2017-04-02T09:38:26Z</time>
      </trkpt>
      <trkpt lat="49.46698" lon="5.66329">
        <ele>283.24560546875</ele>
        <time>2017-04-02T09:38:44Z</time>
      </trkpt>
      <trkpt lat="49.46698" lon="5.66329">
        <ele>283.24560546875</ele>
        <time>2017-04-02T09:40:37Z</time>
      </trkpt>
      <trkpt lat="49.46698" lon="5.66329">
        <ele>283.72619628906</ele>
        <time>2017-04-02T09:49:09Z</time>
      </trkpt>
      <trkpt lat="49.46698" lon="5.6633">
        <ele>284.20690917969</ele>
        <time>2017-04-02T09:49:22Z</time>
      </trkpt>
      <trkpt lat="49.46698" lon="5.66335">
        <ele>284.20690917969</ele>
        <time>2017-04-02T09:49:25Z</time>
      </trkpt>
      <trkpt lat="49.46708" lon="5.66349">
        <ele>284.68762207031</ele>
        <time>2017-04-02T09:49:32Z</time>
      </trkpt>
      <trkpt lat="49.46713" lon="5.66367">
        <ele>285.16821289062</ele>
        <time>2017-04-02T09:49:39Z</time>
      </trkpt>
      <trkpt lat="49.46722" lon="5.66411">
        <ele>287.0908203125</ele>
        <time>2017-04-02T09:49:51Z</time>
      </trkpt>
      <trkpt lat="49.46723" lon="5.66425">
        <ele>287.0908203125</ele>
        <time>2017-04-02T09:49:55Z</time>
      </trkpt>
      <trkpt lat="49.46723" lon="5.66438">
        <ele>288.05224609375</ele>
        <time>2017-04-02T09:49:59Z</time>
      </trkpt>
      <trkpt lat="49.46742" lon="5.6649">
        <ele>289.01354980469</ele>
        <time>2017-04-02T09:50:13Z</time>
      </trkpt>
      <trkpt lat="49.46782" lon="5.66517">
        <ele>289.494140625</ele>
        <time>2017-04-02T09:50:28Z</time>
      </trkpt>
      <trkpt lat="49.46821" lon="5.66518">
        <ele>288.53295898438</ele>
        <time>2017-04-02T09:50:41Z</time>
      </trkpt>
      <trkpt lat="49.46826" lon="5.66519">
        <ele>288.53295898438</ele>
        <time>2017-04-02T09:50:42Z</time>
      </trkpt>
      <trkpt lat="49.46841" lon="5.66521">
        <ele>287.57141113281</ele>
        <time>2017-04-02T09:50:45Z</time>
      </trkpt>
      <trkpt lat="49.46856" lon="5.66529">
        <ele>286.61022949219</ele>
        <time>2017-04-02T09:50:48Z</time>
      </trkpt>
      <trkpt lat="49.46872" lon="5.66567">
        <ele>282.28430175781</ele>
        <time>2017-04-02T09:50:53Z</time>
      </trkpt>
      <trkpt lat="49.46863" lon="5.666">
        <ele>280.36169433594</ele>
        <time>2017-04-02T09:50:56Z</time>
      </trkpt>
      <trkpt lat="49.4685" lon="5.66665">
        <ele>276.51635742188</ele>
        <time>2017-04-02T09:51:01Z</time>
      </trkpt>
      <trkpt lat="49.46834" lon="5.66764">
        <ele>270.74841308594</ele>
        <time>2017-04-02T09:51:07Z</time>
      </trkpt>
      <trkpt lat="49.46831" lon="5.66823">
        <ele>268.34509277344</ele>
        <time>2017-04-02T09:51:10Z</time>
      </trkpt>
      <trkpt lat="49.46838" lon="5.66985">
        <ele>264.01928710938</ele>
        <time>2017-04-02T09:51:18Z</time>
      </trkpt>
      <trkpt lat="49.46839" lon="5.67002">
        <ele>263.05786132812</ele>
        <time>2017-04-02T09:51:19Z</time>
      </trkpt>
      <trkpt lat="49.46822" lon="5.67088">
        <ele>254.40600585938</ele>
        <time>2017-04-02T09:51:24Z</time>
      </trkpt>
      <trkpt lat="49.4681" lon="5.67118">
        <ele>252.00280761719</ele>
        <time>2017-04-02T09:51:26Z</time>
      </trkpt>
      <trkpt lat="49.46794" lon="5.67157">
        <ele>248.15759277344</ele>
        <time>2017-04-02T09:51:30Z</time>
      </trkpt>
      <trkpt lat="49.46798" lon="5.67153">
        <ele>246.23486328125</ele>
        <time>2017-04-02T09:51:33Z</time>
      </trkpt>
      <trkpt lat="49.46798" lon="5.67144">
        <ele>249.59948730469</ele>
        <time>2017-04-02T09:51:38Z</time>
      </trkpt>
      <trkpt lat="49.46794" lon="5.67141">
        <ele>250.08020019531</ele>
        <time>2017-04-02T09:51:42Z</time>
      </trkpt>
      <trkpt lat="49.46792" lon="5.67166">
        <ele>248.15759277344</ele>
        <time>2017-04-02T09:51:51Z</time>
      </trkpt>
      <trkpt lat="49.46801" lon="5.67152">
        <ele>249.11877441406</ele>
        <time>2017-04-02T09:51:59Z</time>
      </trkpt>
      <trkpt lat="49.46814" lon="5.67138">
        <ele>250.08020019531</ele>
        <time>2017-04-02T09:52:04Z</time>
      </trkpt>
      <trkpt lat="49.46817" lon="5.67126">
        <ele>251.04138183594</ele>
        <time>2017-04-02T09:52:07Z</time>
      </trkpt>
      <trkpt lat="49.46827" lon="5.6712">
        <ele>251.52209472656</ele>
        <time>2017-04-02T09:52:10Z</time>
      </trkpt>
      <trkpt lat="49.46846" lon="5.67101">
        <ele>252.96398925781</ele>
        <time>2017-04-02T09:52:14Z</time>
      </trkpt>
      <trkpt lat="49.46861" lon="5.67072">
        <ele>253.92541503906</ele>
        <time>2017-04-02T09:52:18Z</time>
      </trkpt>
      <trkpt lat="49.46899" lon="5.67054">
        <ele>256.32873535156</ele>
        <time>2017-04-02T09:52:25Z</time>
      </trkpt>
      <trkpt lat="49.46904" lon="5.67058">
        <ele>257.2900390625</ele>
        <time>2017-04-02T09:52:30Z</time>
      </trkpt>
      <trkpt lat="49.46904" lon="5.67071">
        <ele>255.84802246094</ele>
        <time>2017-04-02T09:52:42Z</time>
      </trkpt>
      <trkpt lat="49.46904" lon="5.67072">
        <ele>256.32873535156</ele>
        <time>2017-04-02T09:52:43Z</time>
      </trkpt>
      <trkpt lat="49.46911" lon="5.67072">
        <ele>255.84802246094</ele>
        <time>2017-04-02T09:52:50Z</time>
      </trkpt>
      <trkpt lat="49.46908" lon="5.67087">
        <ele>251.04138183594</ele>
        <time>2017-04-02T09:52:59Z</time>
      </trkpt>
      <trkpt lat="49.46904" lon="5.67102">
        <ele>249.59948730469</ele>
        <time>2017-04-02T09:53:07Z</time>
      </trkpt>
      <trkpt lat="49.46897" lon="5.67128">
        <ele>248.15759277344</ele>
        <time>2017-04-02T09:53:23Z</time>
      </trkpt>
      <trkpt lat="49.46894" lon="5.67128">
        <ele>250.08020019531</ele>
        <time>2017-04-02T09:53:33Z</time>
      </trkpt>
      <trkpt lat="49.46893" lon="5.67131">
        <ele>249.59948730469</ele>
        <time>2017-04-02T09:53:35Z</time>
      </trkpt>
      <trkpt lat="49.46891" lon="5.67134">
        <ele>247.6767578125</ele>
        <time>2017-04-02T09:53:37Z</time>
      </trkpt>
      <trkpt lat="49.46878" lon="5.67156">
        <ele>244.79284667969</ele>
        <time>2017-04-02T09:53:51Z</time>
      </trkpt>
      <trkpt lat="49.46867" lon="5.67196">
        <ele>239.50549316406</ele>
        <time>2017-04-02T09:54:06Z</time>
      </trkpt>
      <trkpt lat="49.46857" lon="5.67236">
        <ele>239.98620605469</ele>
        <time>2017-04-02T09:54:23Z</time>
      </trkpt>
      <trkpt lat="49.46847" lon="5.67291">
        <ele>238.06359863281</ele>
        <time>2017-04-02T09:54:45Z</time>
      </trkpt>
      <trkpt lat="49.46836" lon="5.6735">
        <ele>235.66027832031</ele>
        <time>2017-04-02T09:55:07Z</time>
      </trkpt>
      <trkpt lat="49.46824" lon="5.67406">
        <ele>234.21838378906</ele>
        <time>2017-04-02T09:55:26Z</time>
      </trkpt>
      <trkpt lat="49.46824" lon="5.67408">
        <ele>234.21838378906</ele>
        <time>2017-04-02T09:55:27Z</time>
      </trkpt>
      <trkpt lat="49.46825" lon="5.67415">
        <ele>234.21838378906</ele>
        <time>2017-04-02T09:55:33Z</time>
      </trkpt>
      <trkpt lat="49.46822" lon="5.67416">
        <ele>235.1796875</ele>
        <time>2017-04-02T09:55:35Z</time>
      </trkpt>
      <trkpt lat="49.46819" lon="5.67439">
        <ele>232.77648925781</ele>
        <time>2017-04-02T09:55:47Z</time>
      </trkpt>
      <trkpt lat="49.46817" lon="5.67456">
        <ele>231.81494140625</ele>
        <time>2017-04-02T09:55:59Z</time>
      </trkpt>
      <trkpt lat="49.46815" lon="5.67463">
        <ele>230.85375976562</ele>
        <time>2017-04-02T09:56:13Z</time>
      </trkpt>
      <trkpt lat="49.46812" lon="5.67471">
        <ele>234.21838378906</ele>
        <time>2017-04-02T09:56:30Z</time>
      </trkpt>
      <trkpt lat="49.46805" lon="5.67484">
        <ele>235.1796875</ele>
        <time>2017-04-02T09:56:40Z</time>
      </trkpt>
      <trkpt lat="49.468" lon="5.67513">
        <ele>234.69909667969</ele>
        <time>2017-04-02T09:56:51Z</time>
      </trkpt>
      <trkpt lat="49.46793" lon="5.67536">
        <ele>232.29577636719</ele>
        <time>2017-04-02T09:57:03Z</time>
      </trkpt>
      <trkpt lat="49.46792" lon="5.67541">
        <ele>231.33435058594</ele>
        <time>2017-04-02T09:57:06Z</time>
      </trkpt>
      <trkpt lat="49.46783" lon="5.67568">
        <ele>231.33435058594</ele>
        <time>2017-04-02T09:57:18Z</time>
      </trkpt>
      <trkpt lat="49.46772" lon="5.67599">
        <ele>229.89233398438</ele>
        <time>2017-04-02T09:57:32Z</time>
      </trkpt>
      <trkpt lat="49.46762" lon="5.67631">
        <ele>230.373046875</ele>
        <time>2017-04-02T09:57:47Z</time>
      </trkpt>
      <trkpt lat="49.46759" lon="5.67643">
        <ele>229.89233398438</ele>
        <time>2017-04-02T09:57:52Z</time>
      </trkpt>
      <trkpt lat="49.46755" lon="5.67649">
        <ele>230.373046875</ele>
        <time>2017-04-02T09:57:56Z</time>
      </trkpt>
      <trkpt lat="49.46749" lon="5.67678">
        <ele>229.89233398438</ele>
        <time>2017-04-02T09:58:12Z</time>
      </trkpt>
      <trkpt lat="49.46746" lon="5.67709">
        <ele>230.373046875</ele>
        <time>2017-04-02T09:58:23Z</time>
      </trkpt>
      <trkpt lat="49.46739" lon="5.6773">
        <ele>234.69909667969</ele>
        <time>2017-04-02T09:58:37Z</time>
      </trkpt>
      <trkpt lat="49.46735" lon="5.67753">
        <ele>238.54431152344</ele>
        <time>2017-04-02T09:58:51Z</time>
      </trkpt>
      <trkpt lat="49.46732" lon="5.67775">
        <ele>238.54431152344</ele>
        <time>2017-04-02T09:59:03Z</time>
      </trkpt>
      <trkpt lat="49.46731" lon="5.67776">
        <ele>239.02490234375</ele>
        <time>2017-04-02T09:59:04Z</time>
      </trkpt>
      <trkpt lat="49.4673" lon="5.67804">
        <ele>233.25708007812</ele>
        <time>2017-04-02T09:59:16Z</time>
      </trkpt>
      <trkpt lat="49.46725" lon="5.67831">
        <ele>239.98620605469</ele>
        <time>2017-04-02T09:59:28Z</time>
      </trkpt>
      <trkpt lat="49.46717" lon="5.67869">
        <ele>247.6767578125</ele>
        <time>2017-04-02T09:59:44Z</time>
      </trkpt>
      <trkpt lat="49.46712" lon="5.67909">
        <ele>254.88659667969</ele>
        <time>2017-04-02T10:00:02Z</time>
      </trkpt>
      <trkpt lat="49.46711" lon="5.67943">
        <ele>255.84802246094</ele>
        <time>2017-04-02T10:00:16Z</time>
      </trkpt>
      <trkpt lat="49.46714" lon="5.67964">
        <ele>252.00280761719</ele>
        <time>2017-04-02T10:00:25Z</time>
      </trkpt>
      <trkpt lat="49.46717" lon="5.67984">
        <ele>250.08020019531</ele>
        <time>2017-04-02T10:00:35Z</time>
      </trkpt>
      <trkpt lat="49.46719" lon="5.67992">
        <ele>249.11877441406</ele>
        <time>2017-04-02T10:00:38Z</time>
      </trkpt>
      <trkpt lat="49.46722" lon="5.68018">
        <ele>247.19604492188</ele>
        <time>2017-04-02T10:00:50Z</time>
      </trkpt>
      <trkpt lat="49.46721" lon="5.68024">
        <ele>246.71545410156</ele>
        <time>2017-04-02T10:00:52Z</time>
      </trkpt>
      <trkpt lat="49.46725" lon="5.68042">
        <ele>247.6767578125</ele>
        <time>2017-04-02T10:01:05Z</time>
      </trkpt>
      <trkpt lat="49.46725" lon="5.68067">
        <ele>247.6767578125</ele>
        <time>2017-04-02T10:01:16Z</time>
      </trkpt>
      <trkpt lat="49.46726" lon="5.68088">
        <ele>247.19604492188</ele>
        <time>2017-04-02T10:01:30Z</time>
      </trkpt>
      <trkpt lat="49.46729" lon="5.68127">
        <ele>247.19604492188</ele>
        <time>2017-04-02T10:01:44Z</time>
      </trkpt>
      <trkpt lat="49.46729" lon="5.68136">
        <ele>245.75415039062</ele>
        <time>2017-04-02T10:01:48Z</time>
      </trkpt>
      <trkpt lat="49.46731" lon="5.68142">
        <ele>244.79284667969</ele>
        <time>2017-04-02T10:01:51Z</time>
      </trkpt>
      <trkpt lat="49.46726" lon="5.68158">
        <ele>244.79284667969</ele>
        <time>2017-04-02T10:01:55Z</time>
      </trkpt>
      <trkpt lat="49.46726" lon="5.68188">
        <ele>244.31225585938</ele>
        <time>2017-04-02T10:02:07Z</time>
      </trkpt>
      <trkpt lat="49.46724" lon="5.68216">
        <ele>243.83154296875</ele>
        <time>2017-04-02T10:02:23Z</time>
      </trkpt>
      <trkpt lat="49.46725" lon="5.68231">
        <ele>243.83154296875</ele>
        <time>2017-04-02T10:02:30Z</time>
      </trkpt>
      <trkpt lat="49.46724" lon="5.68244">
        <ele>244.79284667969</ele>
        <time>2017-04-02T10:02:37Z</time>
      </trkpt>
      <trkpt lat="49.46723" lon="5.68258">
        <ele>246.23486328125</ele>
        <time>2017-04-02T10:02:44Z</time>
      </trkpt>
      <trkpt lat="49.4672" lon="5.68275">
        <ele>247.19604492188</ele>
        <time>2017-04-02T10:02:49Z</time>
      </trkpt>
      <trkpt lat="49.4672" lon="5.68291">
        <ele>252.4833984375</ele>
        <time>2017-04-02T10:02:59Z</time>
      </trkpt>
      <trkpt lat="49.46715" lon="5.68309">
        <ele>258.73193359375</ele>
        <time>2017-04-02T10:03:10Z</time>
      </trkpt>
      <trkpt lat="49.46716" lon="5.68314">
        <ele>258.25134277344</ele>
        <time>2017-04-02T10:03:11Z</time>
      </trkpt>
      <trkpt lat="49.4671" lon="5.68338">
        <ele>265.46130371094</ele>
        <time>2017-04-02T10:03:28Z</time>
      </trkpt>
      <trkpt lat="49.46706" lon="5.68375">
        <ele>271.22912597656</ele>
        <time>2017-04-02T10:03:42Z</time>
      </trkpt>
      <trkpt lat="49.46706" lon="5.68381">
        <ele>273.15185546875</ele>
        <time>2017-04-02T10:03:45Z</time>
      </trkpt>
      <trkpt lat="49.46708" lon="5.68413">
        <ele>277.95825195312</ele>
        <time>2017-04-02T10:03:58Z</time>
      </trkpt>
      <trkpt lat="49.4671" lon="5.68429">
        <ele>276.03564453125</ele>
        <time>2017-04-02T10:04:04Z</time>
      </trkpt>
      <trkpt lat="49.46713" lon="5.6844">
        <ele>276.51635742188</ele>
        <time>2017-04-02T10:04:09Z</time>
      </trkpt>
      <trkpt lat="49.46719" lon="5.68459">
        <ele>276.51635742188</ele>
        <time>2017-04-02T10:04:16Z</time>
      </trkpt>
      <trkpt lat="49.46722" lon="5.68468">
        <ele>277.95825195312</ele>
        <time>2017-04-02T10:04:20Z</time>
      </trkpt>
      <trkpt lat="49.46724" lon="5.68478">
        <ele>280.36169433594</ele>
        <time>2017-04-02T10:04:24Z</time>
      </trkpt>
      <trkpt lat="49.46729" lon="5.68501">
        <ele>281.80358886719</ele>
        <time>2017-04-02T10:04:32Z</time>
      </trkpt>
      <trkpt lat="49.46732" lon="5.68508">
        <ele>283.24560546875</ele>
        <time>2017-04-02T10:04:36Z</time>
      </trkpt>
      <trkpt lat="49.46737" lon="5.68521">
        <ele>281.80358886719</ele>
        <time>2017-04-02T10:04:40Z</time>
      </trkpt>
      <trkpt lat="49.46746" lon="5.6855">
        <ele>281.80358886719</ele>
        <time>2017-04-02T10:04:51Z</time>
      </trkpt>
      <trkpt lat="49.46747" lon="5.68556">
        <ele>281.80358886719</ele>
        <time>2017-04-02T10:04:54Z</time>
      </trkpt>
      <trkpt lat="49.46753" lon="5.68568">
        <ele>282.76501464844</ele>
        <time>2017-04-02T10:05:05Z</time>
      </trkpt>
      <trkpt lat="49.46753" lon="5.68577">
        <ele>284.20690917969</ele>
        <time>2017-04-02T10:05:11Z</time>
      </trkpt>
      <trkpt lat="49.46751" lon="5.68614">
        <ele>284.68762207031</ele>
        <time>2017-04-02T10:05:25Z</time>
      </trkpt>
      <trkpt lat="49.46751" lon="5.68614">
        <ele>283.72619628906</ele>
        <time>2017-04-02T10:05:34Z</time>
      </trkpt>
      <trkpt lat="49.46752" lon="5.68612">
        <ele>283.72619628906</ele>
        <time>2017-04-02T10:05:39Z</time>
      </trkpt>
      <trkpt lat="49.46755" lon="5.68597">
        <ele>286.12951660156</ele>
        <time>2017-04-02T10:05:53Z</time>
      </trkpt>
      <trkpt lat="49.46755" lon="5.686">
        <ele>286.12951660156</ele>
        <time>2017-04-02T10:07:50Z</time>
      </trkpt>
      <trkpt lat="49.46756" lon="5.68603">
        <ele>286.61022949219</ele>
        <time>2017-04-02T10:08:08Z</time>
      </trkpt>
      <trkpt lat="49.46756" lon="5.68604">
        <ele>286.12951660156</ele>
        <time>2017-04-02T10:08:58Z</time>
      </trkpt>
      <trkpt lat="49.46754" lon="5.68614">
        <ele>286.12951660156</ele>
        <time>2017-04-02T10:09:19Z</time>
      </trkpt>
      <trkpt lat="49.46753" lon="5.68613">
        <ele>286.61022949219</ele>
        <time>2017-04-02T10:10:05Z</time>
      </trkpt>
      <trkpt lat="49.4675" lon="5.68642">
        <ele>288.53295898438</ele>
        <time>2017-04-02T10:10:20Z</time>
      </trkpt>
      <trkpt lat="49.46739" lon="5.68683">
        <ele>285.16821289062</ele>
        <time>2017-04-02T10:10:34Z</time>
      </trkpt>
      <trkpt lat="49.46725" lon="5.68742">
        <ele>284.20690917969</ele>
        <time>2017-04-02T10:10:49Z</time>
      </trkpt>
      <trkpt lat="49.46722" lon="5.68776">
        <ele>284.20690917969</ele>
        <time>2017-04-02T10:10:57Z</time>
      </trkpt>
      <trkpt lat="49.46719" lon="5.68818">
        <ele>282.28430175781</ele>
        <time>2017-04-02T10:11:07Z</time>
      </trkpt>
      <trkpt lat="49.4672" lon="5.68837">
        <ele>281.80358886719</ele>
        <time>2017-04-02T10:11:14Z</time>
      </trkpt>
      <trkpt lat="49.46722" lon="5.68849">
        <ele>282.28430175781</ele>
        <time>2017-04-02T10:11:19Z</time>
      </trkpt>
      <trkpt lat="49.46725" lon="5.68879">
        <ele>282.76501464844</ele>
        <time>2017-04-02T10:11:29Z</time>
      </trkpt>
      <trkpt lat="49.46727" lon="5.68888">
        <ele>282.28430175781</ele>
        <time>2017-04-02T10:11:32Z</time>
      </trkpt>
      <trkpt lat="49.46728" lon="5.68901">
        <ele>282.76501464844</ele>
        <time>2017-04-02T10:11:37Z</time>
      </trkpt>
      <trkpt lat="49.46732" lon="5.68945">
        <ele>284.20690917969</ele>
        <time>2017-04-02T10:11:48Z</time>
      </trkpt>
      <trkpt lat="49.46733" lon="5.68979">
        <ele>282.76501464844</ele>
        <time>2017-04-02T10:11:56Z</time>
      </trkpt>
      <trkpt lat="49.46732" lon="5.69016">
        <ele>282.28430175781</ele>
        <time>2017-04-02T10:12:03Z</time>
      </trkpt>
      <trkpt lat="49.46731" lon="5.69078">
        <ele>284.20690917969</ele>
        <time>2017-04-02T10:12:13Z</time>
      </trkpt>
      <trkpt lat="49.46729" lon="5.69095">
        <ele>284.20690917969</ele>
        <time>2017-04-02T10:12:17Z</time>
      </trkpt>
      <trkpt lat="49.46737" lon="5.6915">
        <ele>285.16821289062</ele>
        <time>2017-04-02T10:12:30Z</time>
      </trkpt>
      <trkpt lat="49.4674" lon="5.69161">
        <ele>284.68762207031</ele>
        <time>2017-04-02T10:12:41Z</time>
      </trkpt>
      <trkpt lat="49.46741" lon="5.69163">
        <ele>283.72619628906</ele>
        <time>2017-04-02T10:12:48Z</time>
      </trkpt>
      <trkpt lat="49.46741" lon="5.69176">
        <ele>282.28430175781</ele>
        <time>2017-04-02T10:12:52Z</time>
      </trkpt>
      <trkpt lat="49.46757" lon="5.69222">
        <ele>283.72619628906</ele>
        <time>2017-04-02T10:13:05Z</time>
      </trkpt>
      <trkpt lat="49.46766" lon="5.6924">
        <ele>285.64880371094</ele>
        <time>2017-04-02T10:13:10Z</time>
      </trkpt>
      <trkpt lat="49.46782" lon="5.69274">
        <ele>289.97485351562</ele>
        <time>2017-04-02T10:13:19Z</time>
      </trkpt>
      <trkpt lat="49.46809" lon="5.69322">
        <ele>292.37817382812</ele>
        <time>2017-04-02T10:13:34Z</time>
      </trkpt>
      <trkpt lat="49.46832" lon="5.69353">
        <ele>296.7041015625</ele>
        <time>2017-04-02T10:13:47Z</time>
      </trkpt>
      <trkpt lat="49.46858" lon="5.69387">
        <ele>295.26196289062</ele>
        <time>2017-04-02T10:14:04Z</time>
      </trkpt>
      <trkpt lat="49.46876" lon="5.69416">
        <ele>298.62670898438</ele>
        <time>2017-04-02T10:14:18Z</time>
      </trkpt>
      <trkpt lat="49.46899" lon="5.69451">
        <ele>296.22351074219</ele>
        <time>2017-04-02T10:14:36Z</time>
      </trkpt>
      <trkpt lat="49.4692" lon="5.69495">
        <ele>296.22351074219</ele>
        <time>2017-04-02T10:14:55Z</time>
      </trkpt>
      <trkpt lat="49.46946" lon="5.6956">
        <ele>295.74267578125</ele>
        <time>2017-04-02T10:15:13Z</time>
      </trkpt>
      <trkpt lat="49.46966" lon="5.69626">
        <ele>294.78137207031</ele>
        <time>2017-04-02T10:15:33Z</time>
      </trkpt>
      <trkpt lat="49.4697" lon="5.69632">
        <ele>293.82006835938</ele>
        <time>2017-04-02T10:15:35Z</time>
      </trkpt>
      <trkpt lat="49.4698" lon="5.69632">
        <ele>294.78137207031</ele>
        <time>2017-04-02T10:15:39Z</time>
      </trkpt>
      <trkpt lat="49.47003" lon="5.69625">
        <ele>297.66540527344</ele>
        <time>2017-04-02T10:15:51Z</time>
      </trkpt>
      <trkpt lat="49.47031" lon="5.69696">
        <ele>298.14611816406</ele>
        <time>2017-04-02T10:16:15Z</time>
      </trkpt>
      <trkpt lat="49.47034" lon="5.69755">
        <ele>296.7041015625</ele>
        <time>2017-04-02T10:16:31Z</time>
      </trkpt>
      <trkpt lat="49.47031" lon="5.69761">
        <ele>295.26196289062</ele>
        <time>2017-04-02T10:16:33Z</time>
      </trkpt>
      <trkpt lat="49.47005" lon="5.69782">
        <ele>290.93615722656</ele>
        <time>2017-04-02T10:16:44Z</time>
      </trkpt>
      <trkpt lat="49.46998" lon="5.69792">
        <ele>289.97485351562</ele>
        <time>2017-04-02T10:16:47Z</time>
      </trkpt>
      <trkpt lat="49.46991" lon="5.69802">
        <ele>286.61022949219</ele>
        <time>2017-04-02T10:16:49Z</time>
      </trkpt>
      <trkpt lat="49.4699" lon="5.69812">
        <ele>285.64880371094</ele>
        <time>2017-04-02T10:16:51Z</time>
      </trkpt>
      <trkpt lat="49.46969" lon="5.69833">
        <ele>283.24560546875</ele>
        <time>2017-04-02T10:16:58Z</time>
      </trkpt>
      <trkpt lat="49.46952" lon="5.69837">
        <ele>284.20690917969</ele>
        <time>2017-04-02T10:17:02Z</time>
      </trkpt>
      <trkpt lat="49.46928" lon="5.69843">
        <ele>286.12951660156</ele>
        <time>2017-04-02T10:17:12Z</time>
      </trkpt>
      <trkpt lat="49.46918" lon="5.69846">
        <ele>288.53295898438</ele>
        <time>2017-04-02T10:17:17Z</time>
      </trkpt>
      <trkpt lat="49.46917" lon="5.69851">
        <ele>287.57141113281</ele>
        <time>2017-04-02T10:17:19Z</time>
      </trkpt>
      <trkpt lat="49.46906" lon="5.69861">
        <ele>288.05224609375</ele>
        <time>2017-04-02T10:17:30Z</time>
      </trkpt>
      <trkpt lat="49.46885" lon="5.69897">
        <ele>289.01354980469</ele>
        <time>2017-04-02T10:17:48Z</time>
      </trkpt>
      <trkpt lat="49.4688" lon="5.69907">
        <ele>289.494140625</ele>
        <time>2017-04-02T10:17:52Z</time>
      </trkpt>
      <trkpt lat="49.46877" lon="5.6991">
        <ele>290.45556640625</ele>
        <time>2017-04-02T10:17:59Z</time>
      </trkpt>
      <trkpt lat="49.46845" lon="5.69934">
        <ele>290.45556640625</ele>
        <time>2017-04-02T10:18:19Z</time>
      </trkpt>
      <trkpt lat="49.46838" lon="5.69942">
        <ele>290.93615722656</ele>
        <time>2017-04-02T10:18:24Z</time>
      </trkpt>
      <trkpt lat="49.46836" lon="5.69948">
        <ele>290.93615722656</ele>
        <time>2017-04-02T10:18:28Z</time>
      </trkpt>
      <trkpt lat="49.46833" lon="5.69953">
        <ele>291.41674804688</ele>
        <time>2017-04-02T10:18:32Z</time>
      </trkpt>
      <trkpt lat="49.46804" lon="5.69984">
        <ele>292.37817382812</ele>
        <time>2017-04-02T10:18:51Z</time>
      </trkpt>
      <trkpt lat="49.4677" lon="5.70019">
        <ele>293.82006835938</ele>
        <time>2017-04-02T10:19:13Z</time>
      </trkpt>
      <trkpt lat="49.46748" lon="5.7004">
        <ele>294.78137207031</ele>
        <time>2017-04-02T10:19:26Z</time>
      </trkpt>
      <trkpt lat="49.46742" lon="5.70039">
        <ele>295.26196289062</ele>
        <time>2017-04-02T10:19:29Z</time>
      </trkpt>
      <trkpt lat="49.46741" lon="5.70039">
        <ele>296.22351074219</ele>
        <time>2017-04-02T10:19:40Z</time>
      </trkpt>
      <trkpt lat="49.46741" lon="5.70039">
        <ele>296.22351074219</ele>
        <time>2017-04-02T10:19:43Z</time>
      </trkpt>
      <trkpt lat="49.46698" lon="5.70016">
        <ele>268.34509277344</ele>
        <time>2017-04-02T07:02:07Z</time>
      </trkpt>
      <trkpt lat="49.46731" lon="5.70047">
        <ele>282.28430175781</ele>
        <time>2017-04-02T07:05:09Z</time>
      </trkpt>
      <trkpt lat="49.46734" lon="5.70048">
        <ele>282.28430175781</ele>
        <time>2017-04-02T07:05:13Z</time>
      </trkpt>
      <trkpt lat="49.46726" lon="5.70074">
        <ele>287.0908203125</ele>
        <time>2017-04-02T07:05:24Z</time>
      </trkpt>
      <trkpt lat="49.46721" lon="5.70079">
        <ele>288.05224609375</ele>
        <time>2017-04-02T07:05:28Z</time>
      </trkpt>
      <trkpt lat="49.46702" lon="5.70069">
        <ele>291.41674804688</ele>
        <time>2017-04-02T07:05:42Z</time>
      </trkpt>
      <trkpt lat="49.46703" lon="5.7007">
        <ele>294.78137207031</ele>
        <time>2017-04-02T07:07:08Z</time>
      </trkpt>
      <trkpt lat="49.46704" lon="5.70069">
        <ele>294.78137207031</ele>
        <time>2017-04-02T07:08:34Z</time>
      </trkpt>
      <trkpt lat="49.46704" lon="5.70069">
        <ele>294.78137207031</ele>
        <time>2017-04-02T07:08:42Z</time>
      </trkpt>
      <trkpt lat="49.4671" lon="5.70073">
        <ele>295.26196289062</ele>
        <time>2017-04-02T07:08:48Z</time>
      </trkpt>
      <trkpt lat="49.46747" lon="5.7005">
        <ele>295.26196289062</ele>
        <time>2017-04-02T07:09:03Z</time>
      </trkpt>
      <trkpt lat="49.46789" lon="5.70005">
        <ele>294.78137207031</ele>
        <time>2017-04-02T07:09:18Z</time>
      </trkpt>
      <trkpt lat="49.46859" lon="5.69927">
        <ele>293.33935546875</ele>
        <time>2017-04-02T07:09:38Z</time>
      </trkpt>
      <trkpt lat="49.46862" lon="5.69922">
        <ele>293.33935546875</ele>
        <time>2017-04-02T07:09:39Z</time>
      </trkpt>
      <trkpt lat="49.46853" lon="5.69903">
        <ele>294.30078125</ele>
        <time>2017-04-02T07:09:45Z</time>
      </trkpt>
      <trkpt lat="49.4676" lon="5.69876">
        <ele>293.33935546875</ele>
        <time>2017-04-02T07:10:10Z</time>
      </trkpt>
      <trkpt lat="49.46682" lon="5.69865">
        <ele>293.82006835938</ele>
        <time>2017-04-02T07:10:30Z</time>
      </trkpt>
      <trkpt lat="49.46591" lon="5.69848">
        <ele>294.78137207031</ele>
        <time>2017-04-02T07:10:56Z</time>
      </trkpt>
      <trkpt lat="49.46566" lon="5.69809">
        <ele>295.26196289062</ele>
        <time>2017-04-02T07:11:06Z</time>
      </trkpt>
      <trkpt lat="49.46548" lon="5.69762">
        <ele>293.82006835938</ele>
        <time>2017-04-02T07:11:16Z</time>
      </trkpt>
      <trkpt lat="49.46554" lon="5.69762">
        <ele>300.5</ele>
        <time>2017-04-03T16:45:20Z</time>
      </trkpt>
      <trkpt lat="49.46565" lon="5.69748">
        <ele>299.6</ele>
      </trkpt>
      <trkpt lat="49.46575" lon="5.69737">
        <ele>298.8</ele>
      </trkpt>
      <trkpt lat="49.46587" lon="5.69725">
        <ele>298.1</ele>
      </trkpt>
      <trkpt lat="49.46597" lon="5.69713">
        <ele>298</ele>
      </trkpt>
      <trkpt lat="49.46608" lon="5.69704">
        <ele>298</ele>
      </trkpt>
      <trkpt lat="49.4662" lon="5.69696">
        <ele>297.7</ele>
      </trkpt>
      <trkpt lat="49.46628" lon="5.6969">
        <ele>297.2</ele>
      </trkpt>
    </trkseg>
  </trk>
</gpx>